<?xml version="1.0" encoding="UTF-8" standalone="no" ?>
<gpx xmlns="http://www.topografix.com/GPX/1/1" xmlns:xsi="http://www.w3.org/2001/XMLSchema-instance" xsi:schemaLocation="http://www.topografix.com/GPX/1/1 http://www.topografix.com/GPX/1/1/gpx.xsd" version="1.1" creator="VisuGPX - https://www.visugpx.com">
  <metadata>
    <name>alco grabels combaillaux</name>
    <desc><![CDATA[
]]></desc>
  </metadata>
  <trk>
    <name><![CDATA[alco grabels combaillaux]]></name>
    <extensions>
      <line xmlns="http://www.topografix.com/GPX/gpx_style/0/2">
        <color>0000FF</color>
        <width>4</width>
      </line>
    </extensions>
    <trkseg>
      <trkpt lat="43.62225" lon="3.83538">
        <ele>82.180962</ele>
        <time>2022-10-01T08:26:07Z</time>
      </trkpt>
      <trkpt lat="43.62264" lon="3.83534">
        <ele>81.860451</ele>
        <time>2022-10-01T08:26:27Z</time>
      </trkpt>
      <trkpt lat="43.62294" lon="3.83487">
        <ele>80.099609</ele>
        <time>2022-10-01T08:26:37Z</time>
      </trkpt>
      <trkpt lat="43.62332" lon="3.83443">
        <ele>77.440926</ele>
        <time>2022-10-01T08:26:47Z</time>
      </trkpt>
      <trkpt lat="43.62383" lon="3.83444">
        <ele>75.196144</ele>
        <time>2022-10-01T08:26:57Z</time>
      </trkpt>
      <trkpt lat="43.62426" lon="3.83478">
        <ele>75.074005</ele>
        <time>2022-10-01T08:27:07Z</time>
      </trkpt>
      <trkpt lat="43.62454" lon="3.83544">
        <ele>76.935974</ele>
        <time>2022-10-01T08:27:17Z</time>
      </trkpt>
      <trkpt lat="43.62465" lon="3.83605">
        <ele>78.217072</ele>
        <time>2022-10-01T08:27:27Z</time>
      </trkpt>
      <trkpt lat="43.62447" lon="3.83642">
        <ele>78.933228</ele>
        <time>2022-10-01T08:27:37Z</time>
      </trkpt>
      <trkpt lat="43.62415" lon="3.83659">
        <ele>80.406891</ele>
        <time>2022-10-01T08:27:47Z</time>
      </trkpt>
      <trkpt lat="43.62419" lon="3.83677">
        <ele>81.366295</ele>
        <time>2022-10-01T08:27:57Z</time>
      </trkpt>
      <trkpt lat="43.62423" lon="3.83679">
        <ele>80.813591</ele>
        <time>2022-10-01T08:37:07Z</time>
      </trkpt>
      <trkpt lat="43.62471" lon="3.8365">
        <ele>79.593391</ele>
        <time>2022-10-01T08:37:27Z</time>
      </trkpt>
      <trkpt lat="43.62491" lon="3.83636">
        <ele>78.712334</ele>
        <time>2022-10-01T08:37:37Z</time>
      </trkpt>
      <trkpt lat="43.62505" lon="3.8361">
        <ele>78.089592</ele>
        <time>2022-10-01T08:37:47Z</time>
      </trkpt>
      <trkpt lat="43.62529" lon="3.83608">
        <ele>77.6903</ele>
        <time>2022-10-01T08:37:57Z</time>
      </trkpt>
      <trkpt lat="43.62547" lon="3.83621">
        <ele>77.227455</ele>
        <time>2022-10-01T08:38:07Z</time>
      </trkpt>
      <trkpt lat="43.62571" lon="3.83612">
        <ele>77.230202</ele>
        <time>2022-10-01T08:38:17Z</time>
      </trkpt>
      <trkpt lat="43.62565" lon="3.83587">
        <ele>77.645592</ele>
        <time>2022-10-01T08:38:27Z</time>
      </trkpt>
      <trkpt lat="43.62544" lon="3.83561">
        <ele>78.07692</ele>
        <time>2022-10-01T08:38:37Z</time>
      </trkpt>
      <trkpt lat="43.6253" lon="3.83529">
        <ele>78.038017</ele>
        <time>2022-10-01T08:38:47Z</time>
      </trkpt>
      <trkpt lat="43.62516" lon="3.83493">
        <ele>77.893517</ele>
        <time>2022-10-01T08:38:57Z</time>
      </trkpt>
      <trkpt lat="43.62507" lon="3.83453">
        <ele>77.511848</ele>
        <time>2022-10-01T08:39:07Z</time>
      </trkpt>
      <trkpt lat="43.62517" lon="3.83402">
        <ele>77.199593</ele>
        <time>2022-10-01T08:39:17Z</time>
      </trkpt>
      <trkpt lat="43.62531" lon="3.83358">
        <ele>78.190514</ele>
        <time>2022-10-01T08:39:27Z</time>
      </trkpt>
      <trkpt lat="43.62546" lon="3.83317">
        <ele>79.445961</ele>
        <time>2022-10-01T08:39:37Z</time>
      </trkpt>
      <trkpt lat="43.62559" lon="3.83278">
        <ele>80.787598</ele>
        <time>2022-10-01T08:39:47Z</time>
      </trkpt>
      <trkpt lat="43.62582" lon="3.83251">
        <ele>82.398926</ele>
        <time>2022-10-01T08:39:57Z</time>
      </trkpt>
      <trkpt lat="43.62604" lon="3.83225">
        <ele>84.047768</ele>
        <time>2022-10-01T08:40:07Z</time>
      </trkpt>
      <trkpt lat="43.62617" lon="3.83202">
        <ele>85.458412</ele>
        <time>2022-10-01T08:40:17Z</time>
      </trkpt>
      <trkpt lat="43.62614" lon="3.83181">
        <ele>85.104897</ele>
        <time>2022-10-01T08:40:27Z</time>
      </trkpt>
      <trkpt lat="43.62627" lon="3.83149">
        <ele>85.027016</ele>
        <time>2022-10-01T08:40:37Z</time>
      </trkpt>
      <trkpt lat="43.62639" lon="3.8311">
        <ele>84.576515</ele>
        <time>2022-10-01T08:40:47Z</time>
      </trkpt>
      <trkpt lat="43.62643" lon="3.83062">
        <ele>81.663452</ele>
        <time>2022-10-01T08:40:57Z</time>
      </trkpt>
      <trkpt lat="43.62652" lon="3.83014">
        <ele>77.954994</ele>
        <time>2022-10-01T08:41:07Z</time>
      </trkpt>
      <trkpt lat="43.62677" lon="3.8302">
        <ele>75.560448</ele>
        <time>2022-10-01T08:41:17Z</time>
      </trkpt>
      <trkpt lat="43.62699" lon="3.83028">
        <ele>76.377693</ele>
        <time>2022-10-01T08:41:27Z</time>
      </trkpt>
      <trkpt lat="43.62725" lon="3.83037">
        <ele>77.437126</ele>
        <time>2022-10-01T08:41:37Z</time>
      </trkpt>
      <trkpt lat="43.62749" lon="3.83053">
        <ele>78.855194</ele>
        <time>2022-10-01T08:41:47Z</time>
      </trkpt>
      <trkpt lat="43.62769" lon="3.83078">
        <ele>80.547363</ele>
        <time>2022-10-01T08:41:57Z</time>
      </trkpt>
      <trkpt lat="43.62795" lon="3.83095">
        <ele>82.628517</ele>
        <time>2022-10-01T08:42:07Z</time>
      </trkpt>
      <trkpt lat="43.6283" lon="3.83087">
        <ele>82.620453</ele>
        <time>2022-10-01T08:42:17Z</time>
      </trkpt>
      <trkpt lat="43.62846" lon="3.83058">
        <ele>81.951599</ele>
        <time>2022-10-01T08:42:27Z</time>
      </trkpt>
      <trkpt lat="43.62836" lon="3.83002">
        <ele>78.381073</ele>
        <time>2022-10-01T08:42:37Z</time>
      </trkpt>
      <trkpt lat="43.62833" lon="3.82953">
        <ele>74.008957</ele>
        <time>2022-10-01T08:42:47Z</time>
      </trkpt>
      <trkpt lat="43.62849" lon="3.82944">
        <ele>70.938469</ele>
        <time>2022-10-01T08:42:57Z</time>
      </trkpt>
      <trkpt lat="43.62876" lon="3.82948">
        <ele>71.789215</ele>
        <time>2022-10-01T08:43:07Z</time>
      </trkpt>
      <trkpt lat="43.62909" lon="3.82957">
        <ele>73.052902</ele>
        <time>2022-10-01T08:43:17Z</time>
      </trkpt>
      <trkpt lat="43.6294" lon="3.8297">
        <ele>74.689461</ele>
        <time>2022-10-01T08:43:27Z</time>
      </trkpt>
      <trkpt lat="43.6297" lon="3.82975">
        <ele>76.075294</ele>
        <time>2022-10-01T08:43:37Z</time>
      </trkpt>
      <trkpt lat="43.63001" lon="3.8296">
        <ele>76.459351</ele>
        <time>2022-10-01T08:43:47Z</time>
      </trkpt>
      <trkpt lat="43.63029" lon="3.82956">
        <ele>76.493034</ele>
        <time>2022-10-01T08:43:57Z</time>
      </trkpt>
      <trkpt lat="43.63051" lon="3.82981">
        <ele>78.028038</ele>
        <time>2022-10-01T08:44:07Z</time>
      </trkpt>
      <trkpt lat="43.63071" lon="3.82987">
        <ele>79.637672</ele>
        <time>2022-10-01T08:44:17Z</time>
      </trkpt>
      <trkpt lat="43.63082" lon="3.82967">
        <ele>79.80024</ele>
        <time>2022-10-01T08:44:27Z</time>
      </trkpt>
      <trkpt lat="43.63099" lon="3.82972">
        <ele>79.884483</ele>
        <time>2022-10-01T08:44:37Z</time>
      </trkpt>
      <trkpt lat="43.63132" lon="3.82976">
        <ele>80.888618</ele>
        <time>2022-10-01T08:44:47Z</time>
      </trkpt>
      <trkpt lat="43.63172" lon="3.82975">
        <ele>82.554832</ele>
        <time>2022-10-01T08:44:57Z</time>
      </trkpt>
      <trkpt lat="43.63202" lon="3.82953">
        <ele>83.155731</ele>
        <time>2022-10-01T08:45:07Z</time>
      </trkpt>
      <trkpt lat="43.63202" lon="3.82923">
        <ele>83.513367</ele>
        <time>2022-10-01T08:45:17Z</time>
      </trkpt>
      <trkpt lat="43.63192" lon="3.82887">
        <ele>82.646568</ele>
        <time>2022-10-01T08:45:27Z</time>
      </trkpt>
      <trkpt lat="43.63186" lon="3.82849">
        <ele>81.531792</ele>
        <time>2022-10-01T08:45:37Z</time>
      </trkpt>
      <trkpt lat="43.63178" lon="3.82812">
        <ele>78.961426</ele>
        <time>2022-10-01T08:45:47Z</time>
      </trkpt>
      <trkpt lat="43.63182" lon="3.82779">
        <ele>76.558266</ele>
        <time>2022-10-01T08:45:57Z</time>
      </trkpt>
      <trkpt lat="43.63197" lon="3.82749">
        <ele>75.483559</ele>
        <time>2022-10-01T08:46:07Z</time>
      </trkpt>
      <trkpt lat="43.63214" lon="3.82722">
        <ele>74.315224</ele>
        <time>2022-10-01T08:46:17Z</time>
      </trkpt>
      <trkpt lat="43.63232" lon="3.82687">
        <ele>73.910225</ele>
        <time>2022-10-01T08:46:27Z</time>
      </trkpt>
      <trkpt lat="43.63256" lon="3.82654">
        <ele>73.472397</ele>
        <time>2022-10-01T08:46:37Z</time>
      </trkpt>
      <trkpt lat="43.63286" lon="3.8262">
        <ele>73.151039</ele>
        <time>2022-10-01T08:46:47Z</time>
      </trkpt>
      <trkpt lat="43.63316" lon="3.82594">
        <ele>73.305336</ele>
        <time>2022-10-01T08:46:57Z</time>
      </trkpt>
      <trkpt lat="43.63351" lon="3.82571">
        <ele>74.472214</ele>
        <time>2022-10-01T08:47:07Z</time>
      </trkpt>
      <trkpt lat="43.6339" lon="3.82556">
        <ele>76.168373</ele>
        <time>2022-10-01T08:47:17Z</time>
      </trkpt>
      <trkpt lat="43.6342" lon="3.82551">
        <ele>78.355469</ele>
        <time>2022-10-01T08:47:27Z</time>
      </trkpt>
      <trkpt lat="43.63448" lon="3.82547">
        <ele>80.29113</ele>
        <time>2022-10-01T08:47:37Z</time>
      </trkpt>
      <trkpt lat="43.63475" lon="3.82544">
        <ele>82.054016</ele>
        <time>2022-10-01T08:47:47Z</time>
      </trkpt>
      <trkpt lat="43.63501" lon="3.82541">
        <ele>83.784149</ele>
        <time>2022-10-01T08:47:57Z</time>
      </trkpt>
      <trkpt lat="43.63526" lon="3.82536">
        <ele>85.488121</ele>
        <time>2022-10-01T08:48:07Z</time>
      </trkpt>
      <trkpt lat="43.63553" lon="3.82527">
        <ele>87.160583</ele>
        <time>2022-10-01T08:48:17Z</time>
      </trkpt>
      <trkpt lat="43.6357" lon="3.82515">
        <ele>88.515373</ele>
        <time>2022-10-01T08:48:27Z</time>
      </trkpt>
      <trkpt lat="43.63574" lon="3.82527">
        <ele>89.176544</ele>
        <time>2022-10-01T08:48:37Z</time>
      </trkpt>
      <trkpt lat="43.63578" lon="3.8255">
        <ele>89.718788</ele>
        <time>2022-10-01T08:51:57Z</time>
      </trkpt>
      <trkpt lat="43.63586" lon="3.82581">
        <ele>90.421425</ele>
        <time>2022-10-01T08:52:17Z</time>
      </trkpt>
      <trkpt lat="43.63592" lon="3.82612">
        <ele>91.079308</ele>
        <time>2022-10-01T08:52:27Z</time>
      </trkpt>
      <trkpt lat="43.63611" lon="3.82638">
        <ele>91.655334</ele>
        <time>2022-10-01T08:52:37Z</time>
      </trkpt>
      <trkpt lat="43.63625" lon="3.82675">
        <ele>92.037117</ele>
        <time>2022-10-01T08:52:47Z</time>
      </trkpt>
      <trkpt lat="43.63636" lon="3.82718">
        <ele>91.656166</ele>
        <time>2022-10-01T08:52:57Z</time>
      </trkpt>
      <trkpt lat="43.63644" lon="3.82763">
        <ele>90.686371</ele>
        <time>2022-10-01T08:53:07Z</time>
      </trkpt>
      <trkpt lat="43.63677" lon="3.82771">
        <ele>87.67749</ele>
        <time>2022-10-01T08:53:17Z</time>
      </trkpt>
      <trkpt lat="43.6372" lon="3.82761">
        <ele>86.925133</ele>
        <time>2022-10-01T08:53:27Z</time>
      </trkpt>
      <trkpt lat="43.63764" lon="3.82752">
        <ele>86.422768</ele>
        <time>2022-10-01T08:53:37Z</time>
      </trkpt>
      <trkpt lat="43.63803" lon="3.82737">
        <ele>86.260254</ele>
        <time>2022-10-01T08:53:47Z</time>
      </trkpt>
      <trkpt lat="43.6384" lon="3.82723">
        <ele>87.671875</ele>
        <time>2022-10-01T08:53:57Z</time>
      </trkpt>
      <trkpt lat="43.63867" lon="3.82718">
        <ele>88.429344</ele>
        <time>2022-10-01T08:54:07Z</time>
      </trkpt>
      <trkpt lat="43.6388" lon="3.82757">
        <ele>87.474976</ele>
        <time>2022-10-01T08:54:17Z</time>
      </trkpt>
      <trkpt lat="43.63897" lon="3.82798">
        <ele>84.165527</ele>
        <time>2022-10-01T08:54:27Z</time>
      </trkpt>
      <trkpt lat="43.63922" lon="3.82803">
        <ele>82.301918</ele>
        <time>2022-10-01T08:54:37Z</time>
      </trkpt>
      <trkpt lat="43.63947" lon="3.82816">
        <ele>81.442955</ele>
        <time>2022-10-01T08:54:47Z</time>
      </trkpt>
      <trkpt lat="43.63971" lon="3.82799">
        <ele>81.723373</ele>
        <time>2022-10-01T08:54:57Z</time>
      </trkpt>
      <trkpt lat="43.63997" lon="3.82794">
        <ele>82.673683</ele>
        <time>2022-10-01T08:55:07Z</time>
      </trkpt>
      <trkpt lat="43.64018" lon="3.82772">
        <ele>83.703499</ele>
        <time>2022-10-01T08:55:17Z</time>
      </trkpt>
      <trkpt lat="43.64042" lon="3.82758">
        <ele>85.151978</ele>
        <time>2022-10-01T08:55:27Z</time>
      </trkpt>
      <trkpt lat="43.64064" lon="3.82737">
        <ele>86.415283</ele>
        <time>2022-10-01T08:55:37Z</time>
      </trkpt>
      <trkpt lat="43.64087" lon="3.82719">
        <ele>87.982796</ele>
        <time>2022-10-01T08:55:47Z</time>
      </trkpt>
      <trkpt lat="43.64109" lon="3.82697">
        <ele>89.373909</ele>
        <time>2022-10-01T08:55:57Z</time>
      </trkpt>
      <trkpt lat="43.6413" lon="3.82674">
        <ele>90.86496</ele>
        <time>2022-10-01T08:56:07Z</time>
      </trkpt>
      <trkpt lat="43.6415" lon="3.82651">
        <ele>92.247925</ele>
        <time>2022-10-01T08:56:17Z</time>
      </trkpt>
      <trkpt lat="43.64169" lon="3.82625">
        <ele>93.614906</ele>
        <time>2022-10-01T08:56:27Z</time>
      </trkpt>
      <trkpt lat="43.6419" lon="3.82598">
        <ele>95.191719</ele>
        <time>2022-10-01T08:56:37Z</time>
      </trkpt>
      <trkpt lat="43.64211" lon="3.82567">
        <ele>96.360512</ele>
        <time>2022-10-01T08:56:47Z</time>
      </trkpt>
      <trkpt lat="43.64227" lon="3.82532">
        <ele>97.373047</ele>
        <time>2022-10-01T08:56:57Z</time>
      </trkpt>
      <trkpt lat="43.64245" lon="3.82498">
        <ele>98.546837</ele>
        <time>2022-10-01T08:57:07Z</time>
      </trkpt>
      <trkpt lat="43.6426" lon="3.8246">
        <ele>100.17408</ele>
        <time>2022-10-01T08:57:17Z</time>
      </trkpt>
      <trkpt lat="43.64275" lon="3.82423">
        <ele>101.450523</ele>
        <time>2022-10-01T08:57:27Z</time>
      </trkpt>
      <trkpt lat="43.64294" lon="3.8239">
        <ele>102.593422</ele>
        <time>2022-10-01T08:57:37Z</time>
      </trkpt>
      <trkpt lat="43.64301" lon="3.82365">
        <ele>103.554771</ele>
        <time>2022-10-01T08:57:47Z</time>
      </trkpt>
      <trkpt lat="43.64322" lon="3.82345">
        <ele>104.101143</ele>
        <time>2022-10-01T08:57:58Z</time>
      </trkpt>
      <trkpt lat="43.64334" lon="3.8231">
        <ele>104.87925</ele>
        <time>2022-10-01T08:58:08Z</time>
      </trkpt>
      <trkpt lat="43.64347" lon="3.82278">
        <ele>105.660034</ele>
        <time>2022-10-01T08:58:18Z</time>
      </trkpt>
      <trkpt lat="43.64363" lon="3.82265">
        <ele>106.209229</ele>
        <time>2022-10-01T08:58:28Z</time>
      </trkpt>
      <trkpt lat="43.64391" lon="3.82257">
        <ele>106.090157</ele>
        <time>2022-10-01T08:58:38Z</time>
      </trkpt>
      <trkpt lat="43.64412" lon="3.82229">
        <ele>105.88224</ele>
        <time>2022-10-01T08:58:48Z</time>
      </trkpt>
      <trkpt lat="43.64385" lon="3.82191">
        <ele>106.35791</ele>
        <time>2022-10-01T08:58:58Z</time>
      </trkpt>
      <trkpt lat="43.6436" lon="3.82176">
        <ele>107.565117</ele>
        <time>2022-10-01T08:59:08Z</time>
      </trkpt>
      <trkpt lat="43.64346" lon="3.82157">
        <ele>108.358238</ele>
        <time>2022-10-01T08:59:18Z</time>
      </trkpt>
      <trkpt lat="43.64344" lon="3.82127">
        <ele>109.077888</ele>
        <time>2022-10-01T08:59:28Z</time>
      </trkpt>
      <trkpt lat="43.64346" lon="3.82095">
        <ele>109.805748</ele>
        <time>2022-10-01T08:59:38Z</time>
      </trkpt>
      <trkpt lat="43.64355" lon="3.82067">
        <ele>110.362816</ele>
        <time>2022-10-01T08:59:48Z</time>
      </trkpt>
      <trkpt lat="43.64366" lon="3.82038">
        <ele>110.718651</ele>
        <time>2022-10-01T08:59:58Z</time>
      </trkpt>
      <trkpt lat="43.6438" lon="3.8201">
        <ele>111.278023</ele>
        <time>2022-10-01T09:00:08Z</time>
      </trkpt>
      <trkpt lat="43.64389" lon="3.81982">
        <ele>111.629181</ele>
        <time>2022-10-01T09:00:18Z</time>
      </trkpt>
      <trkpt lat="43.644" lon="3.81954">
        <ele>112.040138</ele>
        <time>2022-10-01T09:00:28Z</time>
      </trkpt>
      <trkpt lat="43.64407" lon="3.81929">
        <ele>112.35199</ele>
        <time>2022-10-01T09:00:38Z</time>
      </trkpt>
      <trkpt lat="43.64416" lon="3.81902">
        <ele>112.455238</ele>
        <time>2022-10-01T09:00:48Z</time>
      </trkpt>
      <trkpt lat="43.64415" lon="3.81871">
        <ele>112.933586</ele>
        <time>2022-10-01T09:00:58Z</time>
      </trkpt>
      <trkpt lat="43.64417" lon="3.81841">
        <ele>113.641777</ele>
        <time>2022-10-01T09:01:08Z</time>
      </trkpt>
      <trkpt lat="43.64421" lon="3.81811">
        <ele>114.266113</ele>
        <time>2022-10-01T09:01:18Z</time>
      </trkpt>
      <trkpt lat="43.64416" lon="3.81788">
        <ele>114.429085</ele>
        <time>2022-10-01T09:01:28Z</time>
      </trkpt>
      <trkpt lat="43.64407" lon="3.81768">
        <ele>115.746605</ele>
        <time>2022-10-01T09:01:38Z</time>
      </trkpt>
      <trkpt lat="43.64393" lon="3.81744">
        <ele>116.730858</ele>
        <time>2022-10-01T09:01:48Z</time>
      </trkpt>
      <trkpt lat="43.64378" lon="3.81718">
        <ele>118.148712</ele>
        <time>2022-10-01T09:01:58Z</time>
      </trkpt>
      <trkpt lat="43.6437" lon="3.81689">
        <ele>118.941338</ele>
        <time>2022-10-01T09:02:08Z</time>
      </trkpt>
      <trkpt lat="43.6436" lon="3.8166">
        <ele>119.159828</ele>
        <time>2022-10-01T09:02:18Z</time>
      </trkpt>
      <trkpt lat="43.64348" lon="3.8163">
        <ele>119.484535</ele>
        <time>2022-10-01T09:02:28Z</time>
      </trkpt>
      <trkpt lat="43.64336" lon="3.81596">
        <ele>119.698853</ele>
        <time>2022-10-01T09:02:38Z</time>
      </trkpt>
      <trkpt lat="43.64327" lon="3.81562">
        <ele>119.869202</ele>
        <time>2022-10-01T09:02:48Z</time>
      </trkpt>
      <trkpt lat="43.64319" lon="3.81525">
        <ele>119.874031</ele>
        <time>2022-10-01T09:02:58Z</time>
      </trkpt>
      <trkpt lat="43.64311" lon="3.81488">
        <ele>119.148415</ele>
        <time>2022-10-01T09:03:08Z</time>
      </trkpt>
      <trkpt lat="43.64301" lon="3.81457">
        <ele>117.474403</ele>
        <time>2022-10-01T09:03:18Z</time>
      </trkpt>
      <trkpt lat="43.6429" lon="3.81419">
        <ele>115.782814</ele>
        <time>2022-10-01T09:03:28Z</time>
      </trkpt>
      <trkpt lat="43.64274" lon="3.81379">
        <ele>113.914001</ele>
        <time>2022-10-01T09:03:38Z</time>
      </trkpt>
      <trkpt lat="43.64258" lon="3.81341">
        <ele>112.722664</ele>
        <time>2022-10-01T09:03:48Z</time>
      </trkpt>
      <trkpt lat="43.64236" lon="3.81306">
        <ele>112.97271</ele>
        <time>2022-10-01T09:03:58Z</time>
      </trkpt>
      <trkpt lat="43.64219" lon="3.81277">
        <ele>114.058624</ele>
        <time>2022-10-01T09:04:08Z</time>
      </trkpt>
      <trkpt lat="43.64206" lon="3.81253">
        <ele>115.240944</ele>
        <time>2022-10-01T09:04:18Z</time>
      </trkpt>
      <trkpt lat="43.64227" lon="3.81236">
        <ele>114.81089</ele>
        <time>2022-10-01T09:04:28Z</time>
      </trkpt>
      <trkpt lat="43.64249" lon="3.81209">
        <ele>111.092262</ele>
        <time>2022-10-01T09:04:48Z</time>
      </trkpt>
      <trkpt lat="43.64269" lon="3.81213">
        <ele>106.941406</ele>
        <time>2022-10-01T09:07:28Z</time>
      </trkpt>
      <trkpt lat="43.64277" lon="3.81217">
        <ele>105.935387</ele>
        <time>2022-10-01T09:07:48Z</time>
      </trkpt>
      <trkpt lat="43.64286" lon="3.81229">
        <ele>104.92765</ele>
        <time>2022-10-01T09:07:58Z</time>
      </trkpt>
      <trkpt lat="43.64307" lon="3.81247">
        <ele>103.621674</ele>
        <time>2022-10-01T09:08:08Z</time>
      </trkpt>
      <trkpt lat="43.64314" lon="3.81281">
        <ele>102.879333</ele>
        <time>2022-10-01T09:08:18Z</time>
      </trkpt>
      <trkpt lat="43.64333" lon="3.81318">
        <ele>103.713142</ele>
        <time>2022-10-01T09:08:28Z</time>
      </trkpt>
      <trkpt lat="43.64348" lon="3.81351">
        <ele>103.726624</ele>
        <time>2022-10-01T09:08:38Z</time>
      </trkpt>
      <trkpt lat="43.64365" lon="3.81383">
        <ele>103.930779</ele>
        <time>2022-10-01T09:08:48Z</time>
      </trkpt>
      <trkpt lat="43.6438" lon="3.81407">
        <ele>103.98893</ele>
        <time>2022-10-01T09:08:58Z</time>
      </trkpt>
      <trkpt lat="43.64383" lon="3.81427">
        <ele>104.523926</ele>
        <time>2022-10-01T09:09:08Z</time>
      </trkpt>
      <trkpt lat="43.64391" lon="3.81449">
        <ele>105.484154</ele>
        <time>2022-10-01T09:09:18Z</time>
      </trkpt>
      <trkpt lat="43.64407" lon="3.81482">
        <ele>106.07299</ele>
        <time>2022-10-01T09:09:28Z</time>
      </trkpt>
      <trkpt lat="43.64435" lon="3.81529">
        <ele>105.975395</ele>
        <time>2022-10-01T09:09:38Z</time>
      </trkpt>
      <trkpt lat="43.64455" lon="3.81552">
        <ele>103.702843</ele>
        <time>2022-10-01T09:09:48Z</time>
      </trkpt>
      <trkpt lat="43.64469" lon="3.81521">
        <ele>101.94059</ele>
        <time>2022-10-01T09:10:08Z</time>
      </trkpt>
      <trkpt lat="43.64496" lon="3.81476">
        <ele>94.917786</ele>
        <time>2022-10-01T09:10:18Z</time>
      </trkpt>
      <trkpt lat="43.64518" lon="3.81412">
        <ele>87.122627</ele>
        <time>2022-10-01T09:10:28Z</time>
      </trkpt>
      <trkpt lat="43.64529" lon="3.81337">
        <ele>80.185211</ele>
        <time>2022-10-01T09:10:38Z</time>
      </trkpt>
      <trkpt lat="43.64552" lon="3.81265">
        <ele>75.589874</ele>
        <time>2022-10-01T09:10:48Z</time>
      </trkpt>
      <trkpt lat="43.64574" lon="3.81199">
        <ele>71.658485</ele>
        <time>2022-10-01T09:10:58Z</time>
      </trkpt>
      <trkpt lat="43.64585" lon="3.8116">
        <ele>69.850388</ele>
        <time>2022-10-01T09:11:08Z</time>
      </trkpt>
      <trkpt lat="43.64591" lon="3.81112">
        <ele>68.9104</ele>
        <time>2022-10-01T09:11:18Z</time>
      </trkpt>
      <trkpt lat="43.64594" lon="3.81062">
        <ele>68.073486</ele>
        <time>2022-10-01T09:11:28Z</time>
      </trkpt>
      <trkpt lat="43.6459" lon="3.81019">
        <ele>67.495445</ele>
        <time>2022-10-01T09:11:38Z</time>
      </trkpt>
      <trkpt lat="43.64605" lon="3.80975">
        <ele>66.677551</ele>
        <time>2022-10-01T09:11:48Z</time>
      </trkpt>
      <trkpt lat="43.64616" lon="3.80927">
        <ele>66.166298</ele>
        <time>2022-10-01T09:11:58Z</time>
      </trkpt>
      <trkpt lat="43.64631" lon="3.80871">
        <ele>66.69043</ele>
        <time>2022-10-01T09:12:08Z</time>
      </trkpt>
      <trkpt lat="43.64645" lon="3.80812">
        <ele>67.462158</ele>
        <time>2022-10-01T09:12:18Z</time>
      </trkpt>
      <trkpt lat="43.64663" lon="3.80759">
        <ele>68.369141</ele>
        <time>2022-10-01T09:12:28Z</time>
      </trkpt>
      <trkpt lat="43.64674" lon="3.80702">
        <ele>68.99276</ele>
        <time>2022-10-01T09:12:38Z</time>
      </trkpt>
      <trkpt lat="43.6468" lon="3.80642">
        <ele>68.842613</ele>
        <time>2022-10-01T09:12:48Z</time>
      </trkpt>
      <trkpt lat="43.64679" lon="3.80584">
        <ele>67.255867</ele>
        <time>2022-10-01T09:12:58Z</time>
      </trkpt>
      <trkpt lat="43.64674" lon="3.80522">
        <ele>65.301208</ele>
        <time>2022-10-01T09:13:08Z</time>
      </trkpt>
      <trkpt lat="43.64667" lon="3.80461">
        <ele>63.015949</ele>
        <time>2022-10-01T09:13:18Z</time>
      </trkpt>
      <trkpt lat="43.64663" lon="3.80407">
        <ele>61.033642</ele>
        <time>2022-10-01T09:13:28Z</time>
      </trkpt>
      <trkpt lat="43.64668" lon="3.80353">
        <ele>60.335186</ele>
        <time>2022-10-01T09:13:38Z</time>
      </trkpt>
      <trkpt lat="43.64672" lon="3.80298">
        <ele>61.189911</ele>
        <time>2022-10-01T09:13:48Z</time>
      </trkpt>
      <trkpt lat="43.64659" lon="3.80265">
        <ele>62.027401</ele>
        <time>2022-10-01T09:13:58Z</time>
      </trkpt>
      <trkpt lat="43.64627" lon="3.80244">
        <ele>61.984089</ele>
        <time>2022-10-01T09:14:08Z</time>
      </trkpt>
      <trkpt lat="43.64598" lon="3.80262">
        <ele>61.502605</ele>
        <time>2022-10-01T09:14:18Z</time>
      </trkpt>
      <trkpt lat="43.64571" lon="3.80282">
        <ele>61.154438</ele>
        <time>2022-10-01T09:14:28Z</time>
      </trkpt>
      <trkpt lat="43.64532" lon="3.80262">
        <ele>61.684368</ele>
        <time>2022-10-01T09:14:38Z</time>
      </trkpt>
      <trkpt lat="43.645" lon="3.80234">
        <ele>62.203339</ele>
        <time>2022-10-01T09:14:48Z</time>
      </trkpt>
      <trkpt lat="43.64483" lon="3.80208">
        <ele>62.663425</ele>
        <time>2022-10-01T09:14:58Z</time>
      </trkpt>
      <trkpt lat="43.64464" lon="3.80241">
        <ele>63.083141</ele>
        <time>2022-10-01T09:15:18Z</time>
      </trkpt>
      <trkpt lat="43.64466" lon="3.80278">
        <ele>63.698475</ele>
        <time>2022-10-01T09:15:38Z</time>
      </trkpt>
      <trkpt lat="43.64478" lon="3.80305">
        <ele>64.64518</ele>
        <time>2022-10-01T09:15:48Z</time>
      </trkpt>
      <trkpt lat="43.64496" lon="3.80328">
        <ele>64.691376</ele>
        <time>2022-10-01T09:15:58Z</time>
      </trkpt>
      <trkpt lat="43.64509" lon="3.80344">
        <ele>64.298988</ele>
        <time>2022-10-01T09:16:08Z</time>
      </trkpt>
      <trkpt lat="43.64502" lon="3.80331">
        <ele>64.12281</ele>
        <time>2022-10-01T09:16:18Z</time>
      </trkpt>
      <trkpt lat="43.64479" lon="3.80304">
        <ele>64.530312</ele>
        <time>2022-10-01T09:16:28Z</time>
      </trkpt>
      <trkpt lat="43.64466" lon="3.80262">
        <ele>64.374947</ele>
        <time>2022-10-01T09:16:38Z</time>
      </trkpt>
      <trkpt lat="43.64476" lon="3.80217">
        <ele>63.434723</ele>
        <time>2022-10-01T09:16:48Z</time>
      </trkpt>
      <trkpt lat="43.64496" lon="3.80178">
        <ele>62.607937</ele>
        <time>2022-10-01T09:16:58Z</time>
      </trkpt>
      <trkpt lat="43.64519" lon="3.80139">
        <ele>61.811604</ele>
        <time>2022-10-01T09:17:08Z</time>
      </trkpt>
      <trkpt lat="43.64513" lon="3.80095">
        <ele>60.930637</ele>
        <time>2022-10-01T09:17:18Z</time>
      </trkpt>
      <trkpt lat="43.64478" lon="3.8008">
        <ele>60.436443</ele>
        <time>2022-10-01T09:17:28Z</time>
      </trkpt>
      <trkpt lat="43.64444" lon="3.80112">
        <ele>60.985195</ele>
        <time>2022-10-01T09:17:38Z</time>
      </trkpt>
      <trkpt lat="43.64425" lon="3.80145">
        <ele>63.281586</ele>
        <time>2022-10-01T09:17:48Z</time>
      </trkpt>
      <trkpt lat="43.64415" lon="3.80117">
        <ele>64.59481</ele>
        <time>2022-10-01T09:17:58Z</time>
      </trkpt>
      <trkpt lat="43.64407" lon="3.80065">
        <ele>62.857319</ele>
        <time>2022-10-01T09:18:08Z</time>
      </trkpt>
      <trkpt lat="43.64376" lon="3.80031">
        <ele>61.072704</ele>
        <time>2022-10-01T09:18:18Z</time>
      </trkpt>
      <trkpt lat="43.64339" lon="3.79995">
        <ele>59.712597</ele>
        <time>2022-10-01T09:18:28Z</time>
      </trkpt>
      <trkpt lat="43.64311" lon="3.79975">
        <ele>58.886597</ele>
        <time>2022-10-01T09:19:28Z</time>
      </trkpt>
      <trkpt lat="43.64286" lon="3.79943">
        <ele>60.20174</ele>
        <time>2022-10-01T09:19:48Z</time>
      </trkpt>
      <trkpt lat="43.64261" lon="3.79911">
        <ele>62.030682</ele>
        <time>2022-10-01T09:19:58Z</time>
      </trkpt>
      <trkpt lat="43.64239" lon="3.799">
        <ele>64.174919</ele>
        <time>2022-10-01T09:20:08Z</time>
      </trkpt>
      <trkpt lat="43.64222" lon="3.79888">
        <ele>67.074677</ele>
        <time>2022-10-01T09:20:18Z</time>
      </trkpt>
      <trkpt lat="43.64221" lon="3.79872">
        <ele>68.178001</ele>
        <time>2022-10-01T09:20:28Z</time>
      </trkpt>
      <trkpt lat="43.64235" lon="3.79853">
        <ele>68.861694</ele>
        <time>2022-10-01T09:20:38Z</time>
      </trkpt>
      <trkpt lat="43.64274" lon="3.79827">
        <ele>66.41732</ele>
        <time>2022-10-01T09:20:58Z</time>
      </trkpt>
      <trkpt lat="43.64313" lon="3.79809">
        <ele>63.164795</ele>
        <time>2022-10-01T09:21:08Z</time>
      </trkpt>
      <trkpt lat="43.64355" lon="3.79787">
        <ele>60.444824</ele>
        <time>2022-10-01T09:21:18Z</time>
      </trkpt>
      <trkpt lat="43.64394" lon="3.79783">
        <ele>59.483227</ele>
        <time>2022-10-01T09:21:28Z</time>
      </trkpt>
      <trkpt lat="43.64431" lon="3.79787">
        <ele>58.648792</ele>
        <time>2022-10-01T09:21:38Z</time>
      </trkpt>
      <trkpt lat="43.64449" lon="3.79783">
        <ele>58.281818</ele>
        <time>2022-10-01T09:21:48Z</time>
      </trkpt>
      <trkpt lat="43.64473" lon="3.79763">
        <ele>58.00227</ele>
        <time>2022-10-01T09:21:58Z</time>
      </trkpt>
      <trkpt lat="43.64503" lon="3.79717">
        <ele>57.782047</ele>
        <time>2022-10-01T09:22:08Z</time>
      </trkpt>
      <trkpt lat="43.64531" lon="3.79673">
        <ele>56.941555</ele>
        <time>2022-10-01T09:22:18Z</time>
      </trkpt>
      <trkpt lat="43.64551" lon="3.7962">
        <ele>56.331806</ele>
        <time>2022-10-01T09:22:28Z</time>
      </trkpt>
      <trkpt lat="43.64566" lon="3.79567">
        <ele>58.196804</ele>
        <time>2022-10-01T09:22:38Z</time>
      </trkpt>
      <trkpt lat="43.6458" lon="3.79526">
        <ele>63.037258</ele>
        <time>2022-10-01T09:22:48Z</time>
      </trkpt>
      <trkpt lat="43.64597" lon="3.79487">
        <ele>68.869926</ele>
        <time>2022-10-01T09:22:58Z</time>
      </trkpt>
      <trkpt lat="43.64595" lon="3.79455">
        <ele>74.523964</ele>
        <time>2022-10-01T09:23:08Z</time>
      </trkpt>
      <trkpt lat="43.64611" lon="3.79425">
        <ele>80.395599</ele>
        <time>2022-10-01T09:23:18Z</time>
      </trkpt>
      <trkpt lat="43.64632" lon="3.79396">
        <ele>82.092438</ele>
        <time>2022-10-01T09:23:28Z</time>
      </trkpt>
      <trkpt lat="43.6465" lon="3.79359">
        <ele>82.55983</ele>
        <time>2022-10-01T09:23:38Z</time>
      </trkpt>
      <trkpt lat="43.64658" lon="3.79314">
        <ele>85.431252</ele>
        <time>2022-10-01T09:23:48Z</time>
      </trkpt>
      <trkpt lat="43.64671" lon="3.79284">
        <ele>88.04718</ele>
        <time>2022-10-01T09:23:58Z</time>
      </trkpt>
      <trkpt lat="43.64697" lon="3.79269">
        <ele>86.106544</ele>
        <time>2022-10-01T09:24:28Z</time>
      </trkpt>
      <trkpt lat="43.64706" lon="3.79247">
        <ele>84.63929</ele>
        <time>2022-10-01T09:24:48Z</time>
      </trkpt>
      <trkpt lat="43.64717" lon="3.79218">
        <ele>85.698158</ele>
        <time>2022-10-01T09:24:58Z</time>
      </trkpt>
      <trkpt lat="43.64719" lon="3.79194">
        <ele>89.585701</ele>
        <time>2022-10-01T09:25:08Z</time>
      </trkpt>
      <trkpt lat="43.6474" lon="3.79173">
        <ele>91.802582</ele>
        <time>2022-10-01T09:25:18Z</time>
      </trkpt>
      <trkpt lat="43.64761" lon="3.79153">
        <ele>91.628441</ele>
        <time>2022-10-01T09:25:28Z</time>
      </trkpt>
      <trkpt lat="43.64776" lon="3.7913">
        <ele>92.779991</ele>
        <time>2022-10-01T09:25:38Z</time>
      </trkpt>
      <trkpt lat="43.64774" lon="3.79108">
        <ele>95.135353</ele>
        <time>2022-10-01T09:25:48Z</time>
      </trkpt>
      <trkpt lat="43.64768" lon="3.79091">
        <ele>99.103516</ele>
        <time>2022-10-01T09:25:58Z</time>
      </trkpt>
      <trkpt lat="43.64766" lon="3.79074">
        <ele>103.901817</ele>
        <time>2022-10-01T09:26:08Z</time>
      </trkpt>
      <trkpt lat="43.64767" lon="3.79053">
        <ele>106.796112</ele>
        <time>2022-10-01T09:26:18Z</time>
      </trkpt>
      <trkpt lat="43.64773" lon="3.79037">
        <ele>109.264671</ele>
        <time>2022-10-01T09:26:28Z</time>
      </trkpt>
      <trkpt lat="43.64798" lon="3.79011">
        <ele>109.090996</ele>
        <time>2022-10-01T09:26:48Z</time>
      </trkpt>
      <trkpt lat="43.64825" lon="3.78976">
        <ele>106.161705</ele>
        <time>2022-10-01T09:26:58Z</time>
      </trkpt>
      <trkpt lat="43.64844" lon="3.78954">
        <ele>105.300446</ele>
        <time>2022-10-01T09:27:08Z</time>
      </trkpt>
      <trkpt lat="43.64865" lon="3.78929">
        <ele>104.152122</ele>
        <time>2022-10-01T09:27:18Z</time>
      </trkpt>
      <trkpt lat="43.64885" lon="3.78909">
        <ele>103.893181</ele>
        <time>2022-10-01T09:27:28Z</time>
      </trkpt>
      <trkpt lat="43.64904" lon="3.78887">
        <ele>104.775078</ele>
        <time>2022-10-01T09:27:38Z</time>
      </trkpt>
      <trkpt lat="43.64909" lon="3.78883">
        <ele>105.280876</ele>
        <time>2022-10-01T09:27:48Z</time>
      </trkpt>
      <trkpt lat="43.64925" lon="3.78871">
        <ele>106.66449</ele>
        <time>2022-10-01T09:27:58Z</time>
      </trkpt>
      <trkpt lat="43.64952" lon="3.78864">
        <ele>105.321495</ele>
        <time>2022-10-01T09:28:08Z</time>
      </trkpt>
      <trkpt lat="43.64972" lon="3.78845">
        <ele>104.572998</ele>
        <time>2022-10-01T09:28:18Z</time>
      </trkpt>
      <trkpt lat="43.64987" lon="3.7883">
        <ele>105.579102</ele>
        <time>2022-10-01T09:28:28Z</time>
      </trkpt>
      <trkpt lat="43.64999" lon="3.78808">
        <ele>106.813759</ele>
        <time>2022-10-01T09:28:38Z</time>
      </trkpt>
      <trkpt lat="43.65021" lon="3.78788">
        <ele>108.031242</ele>
        <time>2022-10-01T09:28:48Z</time>
      </trkpt>
      <trkpt lat="43.65042" lon="3.78777">
        <ele>105.462074</ele>
        <time>2022-10-01T09:28:58Z</time>
      </trkpt>
      <trkpt lat="43.65061" lon="3.7878">
        <ele>100.918304</ele>
        <time>2022-10-01T09:29:08Z</time>
      </trkpt>
      <trkpt lat="43.65073" lon="3.78808">
        <ele>94.917503</ele>
        <time>2022-10-01T09:29:18Z</time>
      </trkpt>
      <trkpt lat="43.65057" lon="3.78838">
        <ele>91.242004</ele>
        <time>2022-10-01T09:29:28Z</time>
      </trkpt>
      <trkpt lat="43.65037" lon="3.7887">
        <ele>90.74752</ele>
        <time>2022-10-01T09:29:38Z</time>
      </trkpt>
      <trkpt lat="43.6502" lon="3.78894">
        <ele>89.741676</ele>
        <time>2022-10-01T09:29:48Z</time>
      </trkpt>
      <trkpt lat="43.65025" lon="3.78906">
        <ele>88.090492</ele>
        <time>2022-10-01T09:29:58Z</time>
      </trkpt>
      <trkpt lat="43.65054" lon="3.78885">
        <ele>85.390877</ele>
        <time>2022-10-01T09:30:08Z</time>
      </trkpt>
      <trkpt lat="43.65067" lon="3.78931">
        <ele>81.117851</ele>
        <time>2022-10-01T09:30:18Z</time>
      </trkpt>
      <trkpt lat="43.65092" lon="3.78905">
        <ele>75.10498</ele>
        <time>2022-10-01T09:30:28Z</time>
      </trkpt>
      <trkpt lat="43.65119" lon="3.7888">
        <ele>75.597977</ele>
        <time>2022-10-01T09:30:38Z</time>
      </trkpt>
      <trkpt lat="43.65144" lon="3.78855">
        <ele>73.58416</ele>
        <time>2022-10-01T09:30:48Z</time>
      </trkpt>
      <trkpt lat="43.65146" lon="3.78823">
        <ele>73.671028</ele>
        <time>2022-10-01T09:30:58Z</time>
      </trkpt>
      <trkpt lat="43.6517" lon="3.78798">
        <ele>74.930946</ele>
        <time>2022-10-01T09:31:08Z</time>
      </trkpt>
      <trkpt lat="43.65202" lon="3.78773">
        <ele>74.206078</ele>
        <time>2022-10-01T09:31:18Z</time>
      </trkpt>
      <trkpt lat="43.65223" lon="3.7874">
        <ele>73.68911</ele>
        <time>2022-10-01T09:31:28Z</time>
      </trkpt>
      <trkpt lat="43.65251" lon="3.78726">
        <ele>73.395393</ele>
        <time>2022-10-01T09:31:38Z</time>
      </trkpt>
      <trkpt lat="43.65277" lon="3.78714">
        <ele>72.610275</ele>
        <time>2022-10-01T09:31:48Z</time>
      </trkpt>
      <trkpt lat="43.65309" lon="3.78696">
        <ele>71.890053</ele>
        <time>2022-10-01T09:31:58Z</time>
      </trkpt>
      <trkpt lat="43.65336" lon="3.78671">
        <ele>71.177406</ele>
        <time>2022-10-01T09:32:08Z</time>
      </trkpt>
      <trkpt lat="43.65374" lon="3.78647">
        <ele>70.739693</ele>
        <time>2022-10-01T09:32:18Z</time>
      </trkpt>
      <trkpt lat="43.65415" lon="3.78626">
        <ele>70.572174</ele>
        <time>2022-10-01T09:32:28Z</time>
      </trkpt>
      <trkpt lat="43.65416" lon="3.78658">
        <ele>70.037575</ele>
        <time>2022-10-01T09:32:38Z</time>
      </trkpt>
      <trkpt lat="43.65402" lon="3.78702">
        <ele>68.655205</ele>
        <time>2022-10-01T09:32:48Z</time>
      </trkpt>
      <trkpt lat="43.65384" lon="3.7875">
        <ele>67.452637</ele>
        <time>2022-10-01T09:32:58Z</time>
      </trkpt>
      <trkpt lat="43.65356" lon="3.78794">
        <ele>67.036537</ele>
        <time>2022-10-01T09:33:08Z</time>
      </trkpt>
      <trkpt lat="43.6536" lon="3.78845">
        <ele>66.168678</ele>
        <time>2022-10-01T09:33:18Z</time>
      </trkpt>
      <trkpt lat="43.65391" lon="3.78874">
        <ele>65.324814</ele>
        <time>2022-10-01T09:33:28Z</time>
      </trkpt>
      <trkpt lat="43.65419" lon="3.78898">
        <ele>65.043694</ele>
        <time>2022-10-01T09:33:38Z</time>
      </trkpt>
      <trkpt lat="43.65449" lon="3.78908">
        <ele>64.953369</ele>
        <time>2022-10-01T09:33:48Z</time>
      </trkpt>
      <trkpt lat="43.65477" lon="3.7892">
        <ele>64.682213</ele>
        <time>2022-10-01T09:33:58Z</time>
      </trkpt>
      <trkpt lat="43.65513" lon="3.78931">
        <ele>64.353065</ele>
        <time>2022-10-01T09:34:08Z</time>
      </trkpt>
      <trkpt lat="43.6555" lon="3.78921">
        <ele>63.205624</ele>
        <time>2022-10-01T09:34:18Z</time>
      </trkpt>
      <trkpt lat="43.65582" lon="3.7891">
        <ele>62.490559</ele>
        <time>2022-10-01T09:34:28Z</time>
      </trkpt>
      <trkpt lat="43.65614" lon="3.78891">
        <ele>62.221436</ele>
        <time>2022-10-01T09:34:38Z</time>
      </trkpt>
      <trkpt lat="43.6564" lon="3.78855">
        <ele>62.681957</ele>
        <time>2022-10-01T09:34:48Z</time>
      </trkpt>
      <trkpt lat="43.65657" lon="3.78818">
        <ele>64.381538</ele>
        <time>2022-10-01T09:34:58Z</time>
      </trkpt>
      <trkpt lat="43.65678" lon="3.78799">
        <ele>65.947029</ele>
        <time>2022-10-01T09:35:08Z</time>
      </trkpt>
      <trkpt lat="43.65705" lon="3.78817">
        <ele>65.878166</ele>
        <time>2022-10-01T09:35:18Z</time>
      </trkpt>
      <trkpt lat="43.65722" lon="3.78827">
        <ele>65.666069</ele>
        <time>2022-10-01T09:35:28Z</time>
      </trkpt>
      <trkpt lat="43.65731" lon="3.78802">
        <ele>66.224831</ele>
        <time>2022-10-01T09:35:38Z</time>
      </trkpt>
      <trkpt lat="43.65745" lon="3.78771">
        <ele>67.968697</ele>
        <time>2022-10-01T09:35:48Z</time>
      </trkpt>
      <trkpt lat="43.65759" lon="3.78734">
        <ele>69.856842</ele>
        <time>2022-10-01T09:35:58Z</time>
      </trkpt>
      <trkpt lat="43.65774" lon="3.787">
        <ele>71.432579</ele>
        <time>2022-10-01T09:36:08Z</time>
      </trkpt>
      <trkpt lat="43.65792" lon="3.78669">
        <ele>73.277092</ele>
        <time>2022-10-01T09:36:18Z</time>
      </trkpt>
      <trkpt lat="43.65815" lon="3.78647">
        <ele>74.511421</ele>
        <time>2022-10-01T09:36:28Z</time>
      </trkpt>
      <trkpt lat="43.65836" lon="3.78622">
        <ele>75.395439</ele>
        <time>2022-10-01T09:36:38Z</time>
      </trkpt>
      <trkpt lat="43.65862" lon="3.78616">
        <ele>75.987167</ele>
        <time>2022-10-01T09:36:48Z</time>
      </trkpt>
      <trkpt lat="43.65886" lon="3.78633">
        <ele>75.883003</ele>
        <time>2022-10-01T09:36:58Z</time>
      </trkpt>
      <trkpt lat="43.6591" lon="3.78651">
        <ele>75.6633</ele>
        <time>2022-10-01T09:37:08Z</time>
      </trkpt>
      <trkpt lat="43.65926" lon="3.78645">
        <ele>75.878838</ele>
        <time>2022-10-01T09:37:18Z</time>
      </trkpt>
      <trkpt lat="43.65941" lon="3.78618">
        <ele>76.3759</ele>
        <time>2022-10-01T09:37:28Z</time>
      </trkpt>
      <trkpt lat="43.65966" lon="3.78609">
        <ele>76.897705</ele>
        <time>2022-10-01T09:37:38Z</time>
      </trkpt>
      <trkpt lat="43.65995" lon="3.78633">
        <ele>77.362473</ele>
        <time>2022-10-01T09:37:48Z</time>
      </trkpt>
      <trkpt lat="43.66025" lon="3.78668">
        <ele>77.912384</ele>
        <time>2022-10-01T09:37:58Z</time>
      </trkpt>
      <trkpt lat="43.66059" lon="3.78677">
        <ele>78.200249</ele>
        <time>2022-10-01T09:38:08Z</time>
      </trkpt>
      <trkpt lat="43.66093" lon="3.78673">
        <ele>78.758476</ele>
        <time>2022-10-01T09:38:18Z</time>
      </trkpt>
      <trkpt lat="43.66127" lon="3.78666">
        <ele>79.39621</ele>
        <time>2022-10-01T09:38:28Z</time>
      </trkpt>
      <trkpt lat="43.66157" lon="3.7866">
        <ele>79.600586</ele>
        <time>2022-10-01T09:38:38Z</time>
      </trkpt>
      <trkpt lat="43.66182" lon="3.78649">
        <ele>79.873405</ele>
        <time>2022-10-01T09:38:48Z</time>
      </trkpt>
      <trkpt lat="43.66194" lon="3.78622">
        <ele>80.753395</ele>
        <time>2022-10-01T09:38:58Z</time>
      </trkpt>
      <trkpt lat="43.66208" lon="3.78608">
        <ele>82.637749</ele>
        <time>2022-10-01T09:39:08Z</time>
      </trkpt>
      <trkpt lat="43.66233" lon="3.78622">
        <ele>82.768852</ele>
        <time>2022-10-01T09:39:18Z</time>
      </trkpt>
      <trkpt lat="43.66262" lon="3.78635">
        <ele>83.01046</ele>
        <time>2022-10-01T09:39:28Z</time>
      </trkpt>
      <trkpt lat="43.66295" lon="3.78652">
        <ele>84.976906</ele>
        <time>2022-10-01T09:39:38Z</time>
      </trkpt>
      <trkpt lat="43.66326" lon="3.78667">
        <ele>85.962738</ele>
        <time>2022-10-01T09:39:48Z</time>
      </trkpt>
      <trkpt lat="43.66346" lon="3.78695">
        <ele>85.901878</ele>
        <time>2022-10-01T09:39:58Z</time>
      </trkpt>
      <trkpt lat="43.6638" lon="3.78718">
        <ele>81.864342</ele>
        <time>2022-10-01T09:40:08Z</time>
      </trkpt>
      <trkpt lat="43.66416" lon="3.78718">
        <ele>82.070808</ele>
        <time>2022-10-01T09:40:18Z</time>
      </trkpt>
      <trkpt lat="43.66436" lon="3.78747">
        <ele>79.766693</ele>
        <time>2022-10-01T09:40:28Z</time>
      </trkpt>
      <trkpt lat="43.6645" lon="3.78761">
        <ele>75.401505</ele>
        <time>2022-10-01T09:40:38Z</time>
      </trkpt>
      <trkpt lat="43.66462" lon="3.78769">
        <ele>74.009758</ele>
        <time>2022-10-01T09:41:48Z</time>
      </trkpt>
      <trkpt lat="43.66469" lon="3.78771">
        <ele>73.890984</ele>
        <time>2022-10-01T09:42:08Z</time>
      </trkpt>
      <trkpt lat="43.66477" lon="3.78772">
        <ele>73.699104</ele>
        <time>2022-10-01T09:42:18Z</time>
      </trkpt>
      <trkpt lat="43.66491" lon="3.78774">
        <ele>73.494812</ele>
        <time>2022-10-01T09:43:18Z</time>
      </trkpt>
      <trkpt lat="43.66503" lon="3.78781">
        <ele>73.027336</ele>
        <time>2022-10-01T09:43:38Z</time>
      </trkpt>
      <trkpt lat="43.66517" lon="3.78781">
        <ele>72.922577</ele>
        <time>2022-10-01T09:43:48Z</time>
      </trkpt>
      <trkpt lat="43.66533" lon="3.78785">
        <ele>72.793022</ele>
        <time>2022-10-01T09:43:58Z</time>
      </trkpt>
      <trkpt lat="43.6655" lon="3.78785">
        <ele>72.797508</ele>
        <time>2022-10-01T09:44:08Z</time>
      </trkpt>
      <trkpt lat="43.66567" lon="3.78789">
        <ele>72.830338</ele>
        <time>2022-10-01T09:44:18Z</time>
      </trkpt>
      <trkpt lat="43.66583" lon="3.78782">
        <ele>73.029015</ele>
        <time>2022-10-01T09:44:28Z</time>
      </trkpt>
      <trkpt lat="43.666" lon="3.78782">
        <ele>73.229393</ele>
        <time>2022-10-01T09:44:38Z</time>
      </trkpt>
      <trkpt lat="43.66615" lon="3.78788">
        <ele>73.259941</ele>
        <time>2022-10-01T09:44:48Z</time>
      </trkpt>
      <trkpt lat="43.6663" lon="3.78778">
        <ele>73.346107</ele>
        <time>2022-10-01T09:44:58Z</time>
      </trkpt>
      <trkpt lat="43.66646" lon="3.78762">
        <ele>73.686729</ele>
        <time>2022-10-01T09:45:08Z</time>
      </trkpt>
      <trkpt lat="43.66665" lon="3.78743">
        <ele>74.080879</ele>
        <time>2022-10-01T09:45:18Z</time>
      </trkpt>
      <trkpt lat="43.66686" lon="3.7873">
        <ele>74.744827</ele>
        <time>2022-10-01T09:45:28Z</time>
      </trkpt>
      <trkpt lat="43.66703" lon="3.78724">
        <ele>74.680084</ele>
        <time>2022-10-01T09:45:38Z</time>
      </trkpt>
      <trkpt lat="43.66721" lon="3.78723">
        <ele>74.227318</ele>
        <time>2022-10-01T09:46:08Z</time>
      </trkpt>
      <trkpt lat="43.66737" lon="3.78726">
        <ele>73.751266</ele>
        <time>2022-10-01T09:46:28Z</time>
      </trkpt>
      <trkpt lat="43.6676" lon="3.78732">
        <ele>73.145241</ele>
        <time>2022-10-01T09:47:58Z</time>
      </trkpt>
      <trkpt lat="43.66774" lon="3.78749">
        <ele>73.017242</ele>
        <time>2022-10-01T09:48:58Z</time>
      </trkpt>
      <trkpt lat="43.66783" lon="3.78769">
        <ele>73.045227</ele>
        <time>2022-10-01T09:49:18Z</time>
      </trkpt>
      <trkpt lat="43.66784" lon="3.78792">
        <ele>73.342422</ele>
        <time>2022-10-01T09:49:28Z</time>
      </trkpt>
      <trkpt lat="43.66768" lon="3.7882">
        <ele>73.614769</ele>
        <time>2022-10-01T09:49:58Z</time>
      </trkpt>
      <trkpt lat="43.66778" lon="3.78831">
        <ele>73.717339</ele>
        <time>2022-10-01T09:50:18Z</time>
      </trkpt>
      <trkpt lat="43.66782" lon="3.78847">
        <ele>73.870232</ele>
        <time>2022-10-01T09:50:28Z</time>
      </trkpt>
      <trkpt lat="43.66789" lon="3.78865">
        <ele>73.945366</ele>
        <time>2022-10-01T09:50:38Z</time>
      </trkpt>
      <trkpt lat="43.66795" lon="3.78891">
        <ele>74.009766</ele>
        <time>2022-10-01T09:50:48Z</time>
      </trkpt>
      <trkpt lat="43.66805" lon="3.78912">
        <ele>74.402184</ele>
        <time>2022-10-01T09:50:58Z</time>
      </trkpt>
      <trkpt lat="43.66816" lon="3.7893">
        <ele>75.119141</ele>
        <time>2022-10-01T09:51:18Z</time>
      </trkpt>
      <trkpt lat="43.66821" lon="3.78935">
        <ele>75.401855</ele>
        <time>2022-10-01T09:51:38Z</time>
      </trkpt>
      <trkpt lat="43.66837" lon="3.78949">
        <ele>75.86898</ele>
        <time>2022-10-01T09:51:48Z</time>
      </trkpt>
      <trkpt lat="43.66853" lon="3.78956">
        <ele>76.434814</ele>
        <time>2022-10-01T09:52:08Z</time>
      </trkpt>
      <trkpt lat="43.66869" lon="3.78953">
        <ele>76.95166</ele>
        <time>2022-10-01T09:52:18Z</time>
      </trkpt>
      <trkpt lat="43.66889" lon="3.78947">
        <ele>77.363037</ele>
        <time>2022-10-01T09:52:28Z</time>
      </trkpt>
      <trkpt lat="43.66917" lon="3.78944">
        <ele>78.096764</ele>
        <time>2022-10-01T09:52:38Z</time>
      </trkpt>
      <trkpt lat="43.6693" lon="3.78964">
        <ele>78.716797</ele>
        <time>2022-10-01T09:52:48Z</time>
      </trkpt>
      <trkpt lat="43.6694" lon="3.78986">
        <ele>79.825439</ele>
        <time>2022-10-01T09:52:58Z</time>
      </trkpt>
      <trkpt lat="43.66948" lon="3.79005">
        <ele>81.176758</ele>
        <time>2022-10-01T09:53:08Z</time>
      </trkpt>
      <trkpt lat="43.66958" lon="3.79026">
        <ele>82.482666</ele>
        <time>2022-10-01T09:53:18Z</time>
      </trkpt>
      <trkpt lat="43.66969" lon="3.79047">
        <ele>83.895988</ele>
        <time>2022-10-01T09:53:28Z</time>
      </trkpt>
      <trkpt lat="43.6698" lon="3.79065">
        <ele>85.443817</ele>
        <time>2022-10-01T09:53:38Z</time>
      </trkpt>
      <trkpt lat="43.66996" lon="3.79058">
        <ele>86.613098</ele>
        <time>2022-10-01T09:53:48Z</time>
      </trkpt>
      <trkpt lat="43.67006" lon="3.7904">
        <ele>86.569252</ele>
        <time>2022-10-01T09:53:58Z</time>
      </trkpt>
      <trkpt lat="43.67016" lon="3.79024">
        <ele>86.109581</ele>
        <time>2022-10-01T09:54:08Z</time>
      </trkpt>
      <trkpt lat="43.67033" lon="3.79011">
        <ele>86.424034</ele>
        <time>2022-10-01T09:54:18Z</time>
      </trkpt>
      <trkpt lat="43.67048" lon="3.79">
        <ele>86.717865</ele>
        <time>2022-10-01T09:54:28Z</time>
      </trkpt>
      <trkpt lat="43.67065" lon="3.78988">
        <ele>86.855133</ele>
        <time>2022-10-01T09:54:38Z</time>
      </trkpt>
      <trkpt lat="43.67078" lon="3.78991">
        <ele>87.39518</ele>
        <time>2022-10-01T09:54:48Z</time>
      </trkpt>
      <trkpt lat="43.67092" lon="3.79005">
        <ele>88.926056</ele>
        <time>2022-10-01T09:54:58Z</time>
      </trkpt>
      <trkpt lat="43.67104" lon="3.79019">
        <ele>91.318726</ele>
        <time>2022-10-01T09:55:08Z</time>
      </trkpt>
      <trkpt lat="43.67114" lon="3.7903">
        <ele>93.303436</ele>
        <time>2022-10-01T09:55:18Z</time>
      </trkpt>
      <trkpt lat="43.67122" lon="3.79043">
        <ele>95.182533</ele>
        <time>2022-10-01T09:55:28Z</time>
      </trkpt>
      <trkpt lat="43.6713" lon="3.79057">
        <ele>96.964973</ele>
        <time>2022-10-01T09:55:38Z</time>
      </trkpt>
      <trkpt lat="43.67136" lon="3.7907">
        <ele>98.880363</ele>
        <time>2022-10-01T09:55:48Z</time>
      </trkpt>
      <trkpt lat="43.67144" lon="3.79083">
        <ele>100.819336</ele>
        <time>2022-10-01T09:55:58Z</time>
      </trkpt>
      <trkpt lat="43.67151" lon="3.79097">
        <ele>102.75576</ele>
        <time>2022-10-01T09:56:08Z</time>
      </trkpt>
      <trkpt lat="43.6716" lon="3.79104">
        <ele>104.709694</ele>
        <time>2022-10-01T09:56:18Z</time>
      </trkpt>
      <trkpt lat="43.6718" lon="3.79042">
        <ele>103.939812</ele>
        <time>2022-10-01T09:56:28Z</time>
      </trkpt>
      <trkpt lat="43.67214" lon="3.79026">
        <ele>101.757423</ele>
        <time>2022-10-01T09:56:48Z</time>
      </trkpt>
      <trkpt lat="43.67225" lon="3.79024">
        <ele>102.967506</ele>
        <time>2022-10-01T09:56:58Z</time>
      </trkpt>
      <trkpt lat="43.67241" lon="3.79021">
        <ele>103.369713</ele>
        <time>2022-10-01T09:57:58Z</time>
      </trkpt>
      <trkpt lat="43.67247" lon="3.79021">
        <ele>104.156731</ele>
        <time>2022-10-01T09:58:18Z</time>
      </trkpt>
      <trkpt lat="43.67264" lon="3.79021">
        <ele>105.274101</ele>
        <time>2022-10-01T09:58:28Z</time>
      </trkpt>
      <trkpt lat="43.67272" lon="3.79019">
        <ele>106.247253</ele>
        <time>2022-10-01T09:58:38Z</time>
      </trkpt>
      <trkpt lat="43.67286" lon="3.79008">
        <ele>105.588234</ele>
        <time>2022-10-01T09:58:58Z</time>
      </trkpt>
      <trkpt lat="43.67321" lon="3.78982">
        <ele>102.956001</ele>
        <time>2022-10-01T09:59:18Z</time>
      </trkpt>
      <trkpt lat="43.67354" lon="3.78961">
        <ele>98.800591</ele>
        <time>2022-10-01T09:59:28Z</time>
      </trkpt>
      <trkpt lat="43.67374" lon="3.78966">
        <ele>97.095726</ele>
        <time>2022-10-01T09:59:38Z</time>
      </trkpt>
      <trkpt lat="43.67397" lon="3.78939">
        <ele>96.095497</ele>
        <time>2022-10-01T10:04:28Z</time>
      </trkpt>
      <trkpt lat="43.67412" lon="3.78878">
        <ele>88.962929</ele>
        <time>2022-10-01T10:04:48Z</time>
      </trkpt>
      <trkpt lat="43.67412" lon="3.78824">
        <ele>83.770271</ele>
        <time>2022-10-01T10:04:58Z</time>
      </trkpt>
      <trkpt lat="43.67427" lon="3.7881">
        <ele>83.339561</ele>
        <time>2022-10-01T10:05:08Z</time>
      </trkpt>
      <trkpt lat="43.67448" lon="3.78811">
        <ele>83.68087</ele>
        <time>2022-10-01T10:05:18Z</time>
      </trkpt>
      <trkpt lat="43.67473" lon="3.78812">
        <ele>83.93058</ele>
        <time>2022-10-01T10:05:28Z</time>
      </trkpt>
      <trkpt lat="43.67497" lon="3.78802">
        <ele>84.206764</ele>
        <time>2022-10-01T10:05:38Z</time>
      </trkpt>
      <trkpt lat="43.67519" lon="3.78789">
        <ele>84.35067</ele>
        <time>2022-10-01T10:05:48Z</time>
      </trkpt>
      <trkpt lat="43.67539" lon="3.78773">
        <ele>84.580078</ele>
        <time>2022-10-01T10:05:58Z</time>
      </trkpt>
      <trkpt lat="43.67544" lon="3.78751">
        <ele>84.858238</ele>
        <time>2022-10-01T10:06:08Z</time>
      </trkpt>
      <trkpt lat="43.6754" lon="3.78729">
        <ele>85.478271</ele>
        <time>2022-10-01T10:06:18Z</time>
      </trkpt>
      <trkpt lat="43.67534" lon="3.78702">
        <ele>86.624756</ele>
        <time>2022-10-01T10:06:28Z</time>
      </trkpt>
      <trkpt lat="43.67527" lon="3.78673">
        <ele>87.835091</ele>
        <time>2022-10-01T10:06:38Z</time>
      </trkpt>
      <trkpt lat="43.67532" lon="3.78653">
        <ele>89.252907</ele>
        <time>2022-10-01T10:06:48Z</time>
      </trkpt>
      <trkpt lat="43.67557" lon="3.78653">
        <ele>89.842865</ele>
        <time>2022-10-01T10:06:58Z</time>
      </trkpt>
      <trkpt lat="43.67586" lon="3.78654">
        <ele>90.176109</ele>
        <time>2022-10-01T10:07:08Z</time>
      </trkpt>
      <trkpt lat="43.67615" lon="3.78655">
        <ele>90.538902</ele>
        <time>2022-10-01T10:07:18Z</time>
      </trkpt>
      <trkpt lat="43.67645" lon="3.78652">
        <ele>90.819664</ele>
        <time>2022-10-01T10:07:28Z</time>
      </trkpt>
      <trkpt lat="43.67676" lon="3.78644">
        <ele>91.154945</ele>
        <time>2022-10-01T10:07:38Z</time>
      </trkpt>
      <trkpt lat="43.67706" lon="3.78634">
        <ele>91.65226</ele>
        <time>2022-10-01T10:07:48Z</time>
      </trkpt>
      <trkpt lat="43.67741" lon="3.78619">
        <ele>92.408623</ele>
        <time>2022-10-01T10:07:58Z</time>
      </trkpt>
      <trkpt lat="43.67777" lon="3.78606">
        <ele>93.119408</ele>
        <time>2022-10-01T10:08:08Z</time>
      </trkpt>
      <trkpt lat="43.67806" lon="3.78586">
        <ele>93.689552</ele>
        <time>2022-10-01T10:08:18Z</time>
      </trkpt>
      <trkpt lat="43.67833" lon="3.78569">
        <ele>94.124596</ele>
        <time>2022-10-01T10:08:28Z</time>
      </trkpt>
      <trkpt lat="43.67861" lon="3.78554">
        <ele>94.298698</ele>
        <time>2022-10-01T10:08:38Z</time>
      </trkpt>
      <trkpt lat="43.67891" lon="3.7854">
        <ele>94.2313</ele>
        <time>2022-10-01T10:08:48Z</time>
      </trkpt>
      <trkpt lat="43.67923" lon="3.78525">
        <ele>94.195473</ele>
        <time>2022-10-01T10:08:58Z</time>
      </trkpt>
      <trkpt lat="43.67956" lon="3.7851">
        <ele>94.145668</ele>
        <time>2022-10-01T10:09:08Z</time>
      </trkpt>
      <trkpt lat="43.67988" lon="3.78496">
        <ele>94.235466</ele>
        <time>2022-10-01T10:09:18Z</time>
      </trkpt>
      <trkpt lat="43.68019" lon="3.78482">
        <ele>94.591515</ele>
        <time>2022-10-01T10:09:28Z</time>
      </trkpt>
      <trkpt lat="43.6805" lon="3.78469">
        <ele>95.273651</ele>
        <time>2022-10-01T10:09:38Z</time>
      </trkpt>
      <trkpt lat="43.68081" lon="3.78456">
        <ele>96.804718</ele>
        <time>2022-10-01T10:09:48Z</time>
      </trkpt>
      <trkpt lat="43.68111" lon="3.78438">
        <ele>99.097969</ele>
        <time>2022-10-01T10:09:58Z</time>
      </trkpt>
      <trkpt lat="43.68139" lon="3.78418">
        <ele>102.06974</ele>
        <time>2022-10-01T10:10:08Z</time>
      </trkpt>
      <trkpt lat="43.68165" lon="3.78419">
        <ele>104.522461</ele>
        <time>2022-10-01T10:10:18Z</time>
      </trkpt>
      <trkpt lat="43.68188" lon="3.7841">
        <ele>105.594032</ele>
        <time>2022-10-01T10:10:28Z</time>
      </trkpt>
      <trkpt lat="43.68206" lon="3.78391">
        <ele>107.330406</ele>
        <time>2022-10-01T10:10:38Z</time>
      </trkpt>
      <trkpt lat="43.68229" lon="3.78372">
        <ele>109.378273</ele>
        <time>2022-10-01T10:10:48Z</time>
      </trkpt>
      <trkpt lat="43.68252" lon="3.78353">
        <ele>111.044884</ele>
        <time>2022-10-01T10:10:58Z</time>
      </trkpt>
      <trkpt lat="43.68277" lon="3.78342">
        <ele>111.740135</ele>
        <time>2022-10-01T10:11:08Z</time>
      </trkpt>
      <trkpt lat="43.68303" lon="3.7833">
        <ele>111.595497</ele>
        <time>2022-10-01T10:11:18Z</time>
      </trkpt>
      <trkpt lat="43.68331" lon="3.78315">
        <ele>112.369469</ele>
        <time>2022-10-01T10:11:28Z</time>
      </trkpt>
      <trkpt lat="43.68356" lon="3.78286">
        <ele>114.306976</ele>
        <time>2022-10-01T10:11:38Z</time>
      </trkpt>
      <trkpt lat="43.68372" lon="3.78249">
        <ele>115.005836</ele>
        <time>2022-10-01T10:11:48Z</time>
      </trkpt>
      <trkpt lat="43.68378" lon="3.78209">
        <ele>115.844025</ele>
        <time>2022-10-01T10:11:58Z</time>
      </trkpt>
      <trkpt lat="43.68369" lon="3.78166">
        <ele>116.832191</ele>
        <time>2022-10-01T10:12:08Z</time>
      </trkpt>
      <trkpt lat="43.6835" lon="3.78125">
        <ele>120.397034</ele>
        <time>2022-10-01T10:12:18Z</time>
      </trkpt>
      <trkpt lat="43.6834" lon="3.78083">
        <ele>126.431641</ele>
        <time>2022-10-01T10:12:28Z</time>
      </trkpt>
      <trkpt lat="43.68353" lon="3.78044">
        <ele>130.55069</ele>
        <time>2022-10-01T10:12:38Z</time>
      </trkpt>
      <trkpt lat="43.68362" lon="3.78013">
        <ele>130.079208</ele>
        <time>2022-10-01T10:12:48Z</time>
      </trkpt>
      <trkpt lat="43.68359" lon="3.77985">
        <ele>133.295578</ele>
        <time>2022-10-01T10:12:58Z</time>
      </trkpt>
      <trkpt lat="43.68377" lon="3.77957">
        <ele>132.404068</ele>
        <time>2022-10-01T10:13:08Z</time>
      </trkpt>
      <trkpt lat="43.68394" lon="3.77927">
        <ele>129.962357</ele>
        <time>2022-10-01T10:13:18Z</time>
      </trkpt>
      <trkpt lat="43.6841" lon="3.77895">
        <ele>127.111328</ele>
        <time>2022-10-01T10:13:28Z</time>
      </trkpt>
      <trkpt lat="43.68424" lon="3.77857">
        <ele>126.129234</ele>
        <time>2022-10-01T10:13:38Z</time>
      </trkpt>
      <trkpt lat="43.68439" lon="3.77817">
        <ele>125.384094</ele>
        <time>2022-10-01T10:13:48Z</time>
      </trkpt>
      <trkpt lat="43.68454" lon="3.77778">
        <ele>124.994232</ele>
        <time>2022-10-01T10:13:58Z</time>
      </trkpt>
      <trkpt lat="43.68468" lon="3.7774">
        <ele>122.181374</ele>
        <time>2022-10-01T10:14:08Z</time>
      </trkpt>
      <trkpt lat="43.68472" lon="3.777">
        <ele>120.227448</ele>
        <time>2022-10-01T10:14:18Z</time>
      </trkpt>
      <trkpt lat="43.68473" lon="3.77661">
        <ele>119.483765</ele>
        <time>2022-10-01T10:14:28Z</time>
      </trkpt>
      <trkpt lat="43.68473" lon="3.77623">
        <ele>120.270668</ele>
        <time>2022-10-01T10:14:38Z</time>
      </trkpt>
      <trkpt lat="43.68471" lon="3.77585">
        <ele>124.376556</ele>
        <time>2022-10-01T10:14:48Z</time>
      </trkpt>
      <trkpt lat="43.68464" lon="3.77554">
        <ele>128.761246</ele>
        <time>2022-10-01T10:14:58Z</time>
      </trkpt>
      <trkpt lat="43.68449" lon="3.77553">
        <ele>131.577667</ele>
        <time>2022-10-01T10:15:08Z</time>
      </trkpt>
      <trkpt lat="43.68436" lon="3.77549">
        <ele>132.408005</ele>
        <time>2022-10-01T10:15:18Z</time>
      </trkpt>
      <trkpt lat="43.68422" lon="3.77544">
        <ele>133.809158</ele>
        <time>2022-10-01T10:15:28Z</time>
      </trkpt>
      <trkpt lat="43.6841" lon="3.77538">
        <ele>135.365372</ele>
        <time>2022-10-01T10:15:38Z</time>
      </trkpt>
      <trkpt lat="43.68399" lon="3.77531">
        <ele>136.742477</ele>
        <time>2022-10-01T10:15:48Z</time>
      </trkpt>
      <trkpt lat="43.68388" lon="3.77525">
        <ele>137.717758</ele>
        <time>2022-10-01T10:15:58Z</time>
      </trkpt>
      <trkpt lat="43.68378" lon="3.7752">
        <ele>138.497437</ele>
        <time>2022-10-01T10:16:08Z</time>
      </trkpt>
      <trkpt lat="43.68366" lon="3.77518">
        <ele>138.876694</ele>
        <time>2022-10-01T10:16:18Z</time>
      </trkpt>
      <trkpt lat="43.68356" lon="3.77513">
        <ele>139.76004</ele>
        <time>2022-10-01T10:16:28Z</time>
      </trkpt>
      <trkpt lat="43.68345" lon="3.77507">
        <ele>141.29213</ele>
        <time>2022-10-01T10:16:38Z</time>
      </trkpt>
      <trkpt lat="43.68333" lon="3.77501">
        <ele>142.853363</ele>
        <time>2022-10-01T10:16:48Z</time>
      </trkpt>
      <trkpt lat="43.68324" lon="3.77491">
        <ele>145.117386</ele>
        <time>2022-10-01T10:16:58Z</time>
      </trkpt>
      <trkpt lat="43.68314" lon="3.77482">
        <ele>147.359879</ele>
        <time>2022-10-01T10:17:08Z</time>
      </trkpt>
      <trkpt lat="43.68303" lon="3.77472">
        <ele>149.269089</ele>
        <time>2022-10-01T10:17:18Z</time>
      </trkpt>
      <trkpt lat="43.68296" lon="3.77459">
        <ele>152.065079</ele>
        <time>2022-10-01T10:17:28Z</time>
      </trkpt>
      <trkpt lat="43.68285" lon="3.7745">
        <ele>154.794388</ele>
        <time>2022-10-01T10:17:38Z</time>
      </trkpt>
      <trkpt lat="43.68274" lon="3.77438">
        <ele>157.716095</ele>
        <time>2022-10-01T10:17:48Z</time>
      </trkpt>
      <trkpt lat="43.68262" lon="3.77426">
        <ele>160.956055</ele>
        <time>2022-10-01T10:17:58Z</time>
      </trkpt>
      <trkpt lat="43.6825" lon="3.77414">
        <ele>163.684723</ele>
        <time>2022-10-01T10:18:08Z</time>
      </trkpt>
      <trkpt lat="43.68238" lon="3.77403">
        <ele>165.882278</ele>
        <time>2022-10-01T10:18:18Z</time>
      </trkpt>
      <trkpt lat="43.68225" lon="3.77393">
        <ele>167.571976</ele>
        <time>2022-10-01T10:18:28Z</time>
      </trkpt>
      <trkpt lat="43.68212" lon="3.77383">
        <ele>168.377243</ele>
        <time>2022-10-01T10:18:38Z</time>
      </trkpt>
      <trkpt lat="43.68198" lon="3.77375">
        <ele>168.468674</ele>
        <time>2022-10-01T10:18:48Z</time>
      </trkpt>
      <trkpt lat="43.68183" lon="3.7737">
        <ele>167.624359</ele>
        <time>2022-10-01T10:18:58Z</time>
      </trkpt>
      <trkpt lat="43.68168" lon="3.77367">
        <ele>166.489792</ele>
        <time>2022-10-01T10:19:08Z</time>
      </trkpt>
      <trkpt lat="43.68155" lon="3.77366">
        <ele>165.394943</ele>
        <time>2022-10-01T10:19:18Z</time>
      </trkpt>
      <trkpt lat="43.68144" lon="3.77355">
        <ele>164.152832</ele>
        <time>2022-10-01T10:19:28Z</time>
      </trkpt>
      <trkpt lat="43.68136" lon="3.77343">
        <ele>163.124512</ele>
        <time>2022-10-01T10:19:38Z</time>
      </trkpt>
      <trkpt lat="43.68125" lon="3.7733">
        <ele>161.854492</ele>
        <time>2022-10-01T10:19:48Z</time>
      </trkpt>
      <trkpt lat="43.68116" lon="3.7732">
        <ele>160.617355</ele>
        <time>2022-10-01T10:19:58Z</time>
      </trkpt>
      <trkpt lat="43.68107" lon="3.77312">
        <ele>159.731445</ele>
        <time>2022-10-01T10:21:28Z</time>
      </trkpt>
      <trkpt lat="43.6808" lon="3.7728">
        <ele>157.838455</ele>
        <time>2022-10-01T10:21:48Z</time>
      </trkpt>
      <trkpt lat="43.68056" lon="3.77246">
        <ele>156.080032</ele>
        <time>2022-10-01T10:21:58Z</time>
      </trkpt>
      <trkpt lat="43.68055" lon="3.77206">
        <ele>155.812668</ele>
        <time>2022-10-01T10:22:08Z</time>
      </trkpt>
      <trkpt lat="43.68055" lon="3.77172">
        <ele>157.06459</ele>
        <time>2022-10-01T10:22:18Z</time>
      </trkpt>
      <trkpt lat="43.68052" lon="3.77136">
        <ele>158.043198</ele>
        <time>2022-10-01T10:22:28Z</time>
      </trkpt>
      <trkpt lat="43.68051" lon="3.77098">
        <ele>158.704056</ele>
        <time>2022-10-01T10:22:38Z</time>
      </trkpt>
      <trkpt lat="43.68065" lon="3.77059">
        <ele>158.076187</ele>
        <time>2022-10-01T10:22:58Z</time>
      </trkpt>
      <trkpt lat="43.68078" lon="3.77033">
        <ele>157.734756</ele>
        <time>2022-10-01T10:23:18Z</time>
      </trkpt>
      <trkpt lat="43.68094" lon="3.77009">
        <ele>156.757263</ele>
        <time>2022-10-01T10:23:28Z</time>
      </trkpt>
      <trkpt lat="43.68107" lon="3.76987">
        <ele>155.451981</ele>
        <time>2022-10-01T10:23:38Z</time>
      </trkpt>
      <trkpt lat="43.6812" lon="3.76965">
        <ele>154.49617</ele>
        <time>2022-10-01T10:23:48Z</time>
      </trkpt>
      <trkpt lat="43.68138" lon="3.76936">
        <ele>153.593796</ele>
        <time>2022-10-01T10:23:58Z</time>
      </trkpt>
      <trkpt lat="43.68156" lon="3.76905">
        <ele>152.924881</ele>
        <time>2022-10-01T10:24:08Z</time>
      </trkpt>
      <trkpt lat="43.68179" lon="3.76866">
        <ele>152.381638</ele>
        <time>2022-10-01T10:24:18Z</time>
      </trkpt>
      <trkpt lat="43.68208" lon="3.76833">
        <ele>150.833603</ele>
        <time>2022-10-01T10:24:28Z</time>
      </trkpt>
      <trkpt lat="43.68233" lon="3.76821">
        <ele>151.650879</ele>
        <time>2022-10-01T10:24:38Z</time>
      </trkpt>
      <trkpt lat="43.68253" lon="3.76806">
        <ele>152.545578</ele>
        <time>2022-10-01T10:24:48Z</time>
      </trkpt>
      <trkpt lat="43.68275" lon="3.768">
        <ele>152.945847</ele>
        <time>2022-10-01T10:24:58Z</time>
      </trkpt>
      <trkpt lat="43.683" lon="3.76798">
        <ele>154.305054</ele>
        <time>2022-10-01T10:25:08Z</time>
      </trkpt>
      <trkpt lat="43.68322" lon="3.76786">
        <ele>155.497604</ele>
        <time>2022-10-01T10:25:18Z</time>
      </trkpt>
      <trkpt lat="43.68341" lon="3.76781">
        <ele>156.592026</ele>
        <time>2022-10-01T10:25:28Z</time>
      </trkpt>
      <trkpt lat="43.68362" lon="3.76777">
        <ele>157.781479</ele>
        <time>2022-10-01T10:25:38Z</time>
      </trkpt>
      <trkpt lat="43.68382" lon="3.76773">
        <ele>159.211365</ele>
        <time>2022-10-01T10:25:48Z</time>
      </trkpt>
      <trkpt lat="43.68401" lon="3.76767">
        <ele>160.771011</ele>
        <time>2022-10-01T10:25:58Z</time>
      </trkpt>
      <trkpt lat="43.68419" lon="3.76759">
        <ele>162.422913</ele>
        <time>2022-10-01T10:26:08Z</time>
      </trkpt>
      <trkpt lat="43.68433" lon="3.76744">
        <ele>164.023605</ele>
        <time>2022-10-01T10:26:18Z</time>
      </trkpt>
      <trkpt lat="43.68447" lon="3.76733">
        <ele>165.381958</ele>
        <time>2022-10-01T10:26:28Z</time>
      </trkpt>
      <trkpt lat="43.68459" lon="3.76719">
        <ele>167.090897</ele>
        <time>2022-10-01T10:26:38Z</time>
      </trkpt>
      <trkpt lat="43.68468" lon="3.76703">
        <ele>168.567764</ele>
        <time>2022-10-01T10:26:48Z</time>
      </trkpt>
      <trkpt lat="43.68473" lon="3.76685">
        <ele>170.09523</ele>
        <time>2022-10-01T10:26:58Z</time>
      </trkpt>
      <trkpt lat="43.68477" lon="3.76668">
        <ele>171.682785</ele>
        <time>2022-10-01T10:27:08Z</time>
      </trkpt>
      <trkpt lat="43.68485" lon="3.76657">
        <ele>173.25676</ele>
        <time>2022-10-01T10:27:18Z</time>
      </trkpt>
      <trkpt lat="43.68498" lon="3.76651">
        <ele>175.103027</ele>
        <time>2022-10-01T10:27:28Z</time>
      </trkpt>
      <trkpt lat="43.6851" lon="3.76643">
        <ele>177.161301</ele>
        <time>2022-10-01T10:27:38Z</time>
      </trkpt>
      <trkpt lat="43.68523" lon="3.76639">
        <ele>179.148911</ele>
        <time>2022-10-01T10:27:48Z</time>
      </trkpt>
      <trkpt lat="43.68538" lon="3.76638">
        <ele>181.021194</ele>
        <time>2022-10-01T10:27:58Z</time>
      </trkpt>
      <trkpt lat="43.68551" lon="3.76632">
        <ele>182.916977</ele>
        <time>2022-10-01T10:28:08Z</time>
      </trkpt>
      <trkpt lat="43.68562" lon="3.76624">
        <ele>185.07579</ele>
        <time>2022-10-01T10:28:18Z</time>
      </trkpt>
      <trkpt lat="43.68574" lon="3.76616">
        <ele>187.317947</ele>
        <time>2022-10-01T10:28:28Z</time>
      </trkpt>
      <trkpt lat="43.68584" lon="3.76605">
        <ele>189.568741</ele>
        <time>2022-10-01T10:28:38Z</time>
      </trkpt>
      <trkpt lat="43.68591" lon="3.76588">
        <ele>191.463928</ele>
        <time>2022-10-01T10:28:48Z</time>
      </trkpt>
      <trkpt lat="43.68596" lon="3.76566">
        <ele>193.990417</ele>
        <time>2022-10-01T10:28:58Z</time>
      </trkpt>
      <trkpt lat="43.68587" lon="3.76546">
        <ele>197.572067</ele>
        <time>2022-10-01T10:36:28Z</time>
      </trkpt>
      <trkpt lat="43.68576" lon="3.76549">
        <ele>197.129898</ele>
        <time>2022-10-01T10:36:48Z</time>
      </trkpt>
      <trkpt lat="43.68547" lon="3.76556">
        <ele>194.099442</ele>
        <time>2022-10-01T10:37:08Z</time>
      </trkpt>
      <trkpt lat="43.68511" lon="3.76545">
        <ele>189.276855</ele>
        <time>2022-10-01T10:37:18Z</time>
      </trkpt>
      <trkpt lat="43.6847" lon="3.76544">
        <ele>185.502182</ele>
        <time>2022-10-01T10:37:28Z</time>
      </trkpt>
      <trkpt lat="43.68432" lon="3.76514">
        <ele>181.708801</ele>
        <time>2022-10-01T10:37:38Z</time>
      </trkpt>
      <trkpt lat="43.68388" lon="3.765">
        <ele>183.119797</ele>
        <time>2022-10-01T10:37:48Z</time>
      </trkpt>
      <trkpt lat="43.68335" lon="3.76485">
        <ele>181.1577</ele>
        <time>2022-10-01T10:37:58Z</time>
      </trkpt>
      <trkpt lat="43.6828" lon="3.76478">
        <ele>180.933517</ele>
        <time>2022-10-01T10:38:08Z</time>
      </trkpt>
      <trkpt lat="43.68242" lon="3.76482">
        <ele>176.284805</ele>
        <time>2022-10-01T10:38:18Z</time>
      </trkpt>
      <trkpt lat="43.68197" lon="3.76462">
        <ele>175.785645</ele>
        <time>2022-10-01T10:38:28Z</time>
      </trkpt>
      <trkpt lat="43.68161" lon="3.76443">
        <ele>181.375549</ele>
        <time>2022-10-01T10:38:38Z</time>
      </trkpt>
      <trkpt lat="43.68134" lon="3.7644">
        <ele>182.979446</ele>
        <time>2022-10-01T10:38:48Z</time>
      </trkpt>
      <trkpt lat="43.68105" lon="3.76437">
        <ele>182.082352</ele>
        <time>2022-10-01T10:38:58Z</time>
      </trkpt>
      <trkpt lat="43.68068" lon="3.76428">
        <ele>182.066177</ele>
        <time>2022-10-01T10:39:08Z</time>
      </trkpt>
      <trkpt lat="43.68032" lon="3.76416">
        <ele>183.320007</ele>
        <time>2022-10-01T10:39:18Z</time>
      </trkpt>
      <trkpt lat="43.67984" lon="3.76434">
        <ele>182.849991</ele>
        <time>2022-10-01T10:39:28Z</time>
      </trkpt>
      <trkpt lat="43.67942" lon="3.76463">
        <ele>170.342453</ele>
        <time>2022-10-01T10:39:38Z</time>
      </trkpt>
      <trkpt lat="43.67911" lon="3.76467">
        <ele>163.678848</ele>
        <time>2022-10-01T10:39:48Z</time>
      </trkpt>
      <trkpt lat="43.67871" lon="3.76469">
        <ele>161.363022</ele>
        <time>2022-10-01T10:40:08Z</time>
      </trkpt>
      <trkpt lat="43.67823" lon="3.7646">
        <ele>160.796631</ele>
        <time>2022-10-01T10:40:18Z</time>
      </trkpt>
      <trkpt lat="43.67788" lon="3.76486">
        <ele>158.956833</ele>
        <time>2022-10-01T10:40:28Z</time>
      </trkpt>
      <trkpt lat="43.67767" lon="3.76516">
        <ele>156.155624</ele>
        <time>2022-10-01T10:40:38Z</time>
      </trkpt>
      <trkpt lat="43.67752" lon="3.76539">
        <ele>156.288742</ele>
        <time>2022-10-01T10:40:48Z</time>
      </trkpt>
      <trkpt lat="43.67735" lon="3.76545">
        <ele>156.074661</ele>
        <time>2022-10-01T10:40:58Z</time>
      </trkpt>
      <trkpt lat="43.67718" lon="3.76568">
        <ele>155.206436</ele>
        <time>2022-10-01T10:41:48Z</time>
      </trkpt>
      <trkpt lat="43.67691" lon="3.76588">
        <ele>155.467758</ele>
        <time>2022-10-01T10:42:08Z</time>
      </trkpt>
      <trkpt lat="43.67659" lon="3.7661">
        <ele>155.824722</ele>
        <time>2022-10-01T10:42:18Z</time>
      </trkpt>
      <trkpt lat="43.67631" lon="3.76632">
        <ele>156.843307</ele>
        <time>2022-10-01T10:42:28Z</time>
      </trkpt>
      <trkpt lat="43.67615" lon="3.76647">
        <ele>157.333984</ele>
        <time>2022-10-01T10:42:38Z</time>
      </trkpt>
      <trkpt lat="43.67603" lon="3.76661">
        <ele>158.357101</ele>
        <time>2022-10-01T10:43:28Z</time>
      </trkpt>
      <trkpt lat="43.67584" lon="3.76676">
        <ele>161.274689</ele>
        <time>2022-10-01T10:43:48Z</time>
      </trkpt>
      <trkpt lat="43.67604" lon="3.76663">
        <ele>161.672531</ele>
        <time>2022-10-01T10:43:58Z</time>
      </trkpt>
      <trkpt lat="43.67609" lon="3.76653">
        <ele>158.608093</ele>
        <time>2022-10-01T10:44:08Z</time>
      </trkpt>
      <trkpt lat="43.67589" lon="3.76663">
        <ele>159.610489</ele>
        <time>2022-10-01T10:44:18Z</time>
      </trkpt>
      <trkpt lat="43.67547" lon="3.76697">
        <ele>163.285538</ele>
        <time>2022-10-01T10:44:38Z</time>
      </trkpt>
      <trkpt lat="43.67503" lon="3.76735">
        <ele>165.007339</ele>
        <time>2022-10-01T10:44:48Z</time>
      </trkpt>
      <trkpt lat="43.67468" lon="3.76778">
        <ele>163.077286</ele>
        <time>2022-10-01T10:44:58Z</time>
      </trkpt>
      <trkpt lat="43.67455" lon="3.7678">
        <ele>158.811111</ele>
        <time>2022-10-01T10:45:08Z</time>
      </trkpt>
      <trkpt lat="43.67441" lon="3.76775">
        <ele>160.356903</ele>
        <time>2022-10-01T10:45:28Z</time>
      </trkpt>
      <trkpt lat="43.67435" lon="3.76773">
        <ele>160.603226</ele>
        <time>2022-10-01T10:45:38Z</time>
      </trkpt>
      <trkpt lat="43.6745" lon="3.76774">
        <ele>160.329773</ele>
        <time>2022-10-01T10:45:48Z</time>
      </trkpt>
      <trkpt lat="43.67461" lon="3.76789">
        <ele>159.326752</ele>
        <time>2022-10-01T10:45:58Z</time>
      </trkpt>
      <trkpt lat="43.67461" lon="3.76813">
        <ele>157.210403</ele>
        <time>2022-10-01T10:46:08Z</time>
      </trkpt>
      <trkpt lat="43.67453" lon="3.76838">
        <ele>153.199036</ele>
        <time>2022-10-01T10:46:18Z</time>
      </trkpt>
      <trkpt lat="43.67444" lon="3.76857">
        <ele>149.661499</ele>
        <time>2022-10-01T10:46:28Z</time>
      </trkpt>
      <trkpt lat="43.6744" lon="3.76884">
        <ele>147.131683</ele>
        <time>2022-10-01T10:46:38Z</time>
      </trkpt>
      <trkpt lat="43.67431" lon="3.76938">
        <ele>142.927612</ele>
        <time>2022-10-01T10:46:48Z</time>
      </trkpt>
      <trkpt lat="43.67414" lon="3.76996">
        <ele>136.090652</ele>
        <time>2022-10-01T10:46:58Z</time>
      </trkpt>
      <trkpt lat="43.67382" lon="3.77012">
        <ele>132.647339</ele>
        <time>2022-10-01T10:47:08Z</time>
      </trkpt>
      <trkpt lat="43.67367" lon="3.77032">
        <ele>131.097031</ele>
        <time>2022-10-01T10:47:18Z</time>
      </trkpt>
      <trkpt lat="43.67355" lon="3.77053">
        <ele>129.445236</ele>
        <time>2022-10-01T10:47:28Z</time>
      </trkpt>
      <trkpt lat="43.67335" lon="3.77083">
        <ele>126.479584</ele>
        <time>2022-10-01T10:47:38Z</time>
      </trkpt>
      <trkpt lat="43.67319" lon="3.77109">
        <ele>122.651146</ele>
        <time>2022-10-01T10:47:48Z</time>
      </trkpt>
      <trkpt lat="43.673" lon="3.77133">
        <ele>120.339844</ele>
        <time>2022-10-01T10:47:58Z</time>
      </trkpt>
      <trkpt lat="43.67284" lon="3.77125">
        <ele>118.503746</ele>
        <time>2022-10-01T10:48:08Z</time>
      </trkpt>
      <trkpt lat="43.6726" lon="3.77088">
        <ele>119.784973</ele>
        <time>2022-10-01T10:48:28Z</time>
      </trkpt>
      <trkpt lat="43.67228" lon="3.77102">
        <ele>120.995575</ele>
        <time>2022-10-01T10:48:38Z</time>
      </trkpt>
      <trkpt lat="43.67176" lon="3.77119">
        <ele>116.858101</ele>
        <time>2022-10-01T10:48:48Z</time>
      </trkpt>
      <trkpt lat="43.67122" lon="3.77145">
        <ele>113.205811</ele>
        <time>2022-10-01T10:48:58Z</time>
      </trkpt>
      <trkpt lat="43.67069" lon="3.77177">
        <ele>108.166656</ele>
        <time>2022-10-01T10:49:08Z</time>
      </trkpt>
      <trkpt lat="43.67007" lon="3.77216">
        <ele>100.99353</ele>
        <time>2022-10-01T10:49:18Z</time>
      </trkpt>
      <trkpt lat="43.6696" lon="3.77254">
        <ele>93.267639</ele>
        <time>2022-10-01T10:49:28Z</time>
      </trkpt>
      <trkpt lat="43.66916" lon="3.7732">
        <ele>88.898712</ele>
        <time>2022-10-01T10:49:38Z</time>
      </trkpt>
      <trkpt lat="43.66874" lon="3.77382">
        <ele>86.386284</ele>
        <time>2022-10-01T10:49:48Z</time>
      </trkpt>
      <trkpt lat="43.66848" lon="3.77388">
        <ele>85.033241</ele>
        <time>2022-10-01T10:49:58Z</time>
      </trkpt>
      <trkpt lat="43.66806" lon="3.7737">
        <ele>83.917801</ele>
        <time>2022-10-01T10:50:08Z</time>
      </trkpt>
      <trkpt lat="43.66755" lon="3.77383">
        <ele>81.300697</ele>
        <time>2022-10-01T10:50:18Z</time>
      </trkpt>
      <trkpt lat="43.66709" lon="3.77413">
        <ele>79.429604</ele>
        <time>2022-10-01T10:50:28Z</time>
      </trkpt>
      <trkpt lat="43.66677" lon="3.7739">
        <ele>78.045898</ele>
        <time>2022-10-01T10:50:38Z</time>
      </trkpt>
      <trkpt lat="43.66683" lon="3.77319">
        <ele>77.620277</ele>
        <time>2022-10-01T10:50:48Z</time>
      </trkpt>
      <trkpt lat="43.66655" lon="3.77285">
        <ele>76.319931</ele>
        <time>2022-10-01T10:50:58Z</time>
      </trkpt>
      <trkpt lat="43.66631" lon="3.77255">
        <ele>75.401199</ele>
        <time>2022-10-01T10:51:08Z</time>
      </trkpt>
      <trkpt lat="43.66605" lon="3.7722">
        <ele>74.931915</ele>
        <time>2022-10-01T10:51:18Z</time>
      </trkpt>
      <trkpt lat="43.66589" lon="3.77174">
        <ele>74.249718</ele>
        <time>2022-10-01T10:51:28Z</time>
      </trkpt>
      <trkpt lat="43.66555" lon="3.77175">
        <ele>74.319122</ele>
        <time>2022-10-01T10:51:38Z</time>
      </trkpt>
      <trkpt lat="43.66522" lon="3.77196">
        <ele>75.361595</ele>
        <time>2022-10-01T10:51:48Z</time>
      </trkpt>
      <trkpt lat="43.66499" lon="3.77211">
        <ele>76.154343</ele>
        <time>2022-10-01T10:51:58Z</time>
      </trkpt>
      <trkpt lat="43.66468" lon="3.77231">
        <ele>77.500755</ele>
        <time>2022-10-01T10:52:08Z</time>
      </trkpt>
      <trkpt lat="43.6644" lon="3.77246">
        <ele>78.660706</ele>
        <time>2022-10-01T10:52:18Z</time>
      </trkpt>
      <trkpt lat="43.66411" lon="3.77264">
        <ele>79.976097</ele>
        <time>2022-10-01T10:52:28Z</time>
      </trkpt>
      <trkpt lat="43.66383" lon="3.77283">
        <ele>81.103012</ele>
        <time>2022-10-01T10:52:38Z</time>
      </trkpt>
      <trkpt lat="43.66354" lon="3.77301">
        <ele>82.440308</ele>
        <time>2022-10-01T10:52:48Z</time>
      </trkpt>
      <trkpt lat="43.66329" lon="3.77317">
        <ele>84.65126</ele>
        <time>2022-10-01T10:52:58Z</time>
      </trkpt>
      <trkpt lat="43.66324" lon="3.77342">
        <ele>86.2416</ele>
        <time>2022-10-01T10:53:08Z</time>
      </trkpt>
      <trkpt lat="43.66331" lon="3.77375">
        <ele>86.231743</ele>
        <time>2022-10-01T10:53:18Z</time>
      </trkpt>
      <trkpt lat="43.66335" lon="3.77397">
        <ele>85.088943</ele>
        <time>2022-10-01T10:53:28Z</time>
      </trkpt>
      <trkpt lat="43.66327" lon="3.77371">
        <ele>85.404503</ele>
        <time>2022-10-01T10:55:18Z</time>
      </trkpt>
      <trkpt lat="43.66317" lon="3.77333">
        <ele>86.65509</ele>
        <time>2022-10-01T10:55:38Z</time>
      </trkpt>
      <trkpt lat="43.66306" lon="3.77286">
        <ele>87.740318</ele>
        <time>2022-10-01T10:55:48Z</time>
      </trkpt>
      <trkpt lat="43.66294" lon="3.77237">
        <ele>89.048927</ele>
        <time>2022-10-01T10:55:58Z</time>
      </trkpt>
      <trkpt lat="43.66282" lon="3.77187">
        <ele>90.372169</ele>
        <time>2022-10-01T10:56:08Z</time>
      </trkpt>
      <trkpt lat="43.66269" lon="3.77141">
        <ele>91.350952</ele>
        <time>2022-10-01T10:56:18Z</time>
      </trkpt>
      <trkpt lat="43.66258" lon="3.77094">
        <ele>91.537498</ele>
        <time>2022-10-01T10:56:28Z</time>
      </trkpt>
      <trkpt lat="43.66253" lon="3.77047">
        <ele>90.754036</ele>
        <time>2022-10-01T10:56:38Z</time>
      </trkpt>
      <trkpt lat="43.66241" lon="3.77035">
        <ele>89.501579</ele>
        <time>2022-10-01T10:56:48Z</time>
      </trkpt>
      <trkpt lat="43.6623" lon="3.77072">
        <ele>91.484657</ele>
        <time>2022-10-01T10:56:58Z</time>
      </trkpt>
      <trkpt lat="43.66225" lon="3.77113">
        <ele>94.316719</ele>
        <time>2022-10-01T10:57:08Z</time>
      </trkpt>
      <trkpt lat="43.66226" lon="3.77153">
        <ele>95.702049</ele>
        <time>2022-10-01T10:57:18Z</time>
      </trkpt>
      <trkpt lat="43.66221" lon="3.7719">
        <ele>96.552223</ele>
        <time>2022-10-01T10:57:28Z</time>
      </trkpt>
      <trkpt lat="43.66214" lon="3.77224">
        <ele>98.26535</ele>
        <time>2022-10-01T10:57:38Z</time>
      </trkpt>
      <trkpt lat="43.66209" lon="3.77262">
        <ele>99.157204</ele>
        <time>2022-10-01T10:57:48Z</time>
      </trkpt>
      <trkpt lat="43.66205" lon="3.77293">
        <ele>100.313667</ele>
        <time>2022-10-01T10:57:58Z</time>
      </trkpt>
      <trkpt lat="43.662" lon="3.77319">
        <ele>101.037621</ele>
        <time>2022-10-01T10:58:08Z</time>
      </trkpt>
      <trkpt lat="43.66194" lon="3.77344">
        <ele>101.950722</ele>
        <time>2022-10-01T10:58:18Z</time>
      </trkpt>
      <trkpt lat="43.66189" lon="3.77371">
        <ele>102.600761</ele>
        <time>2022-10-01T10:58:28Z</time>
      </trkpt>
      <trkpt lat="43.66181" lon="3.77395">
        <ele>103.437004</ele>
        <time>2022-10-01T10:58:38Z</time>
      </trkpt>
      <trkpt lat="43.66169" lon="3.77412">
        <ele>104.284485</ele>
        <time>2022-10-01T10:58:48Z</time>
      </trkpt>
      <trkpt lat="43.66154" lon="3.77428">
        <ele>105.370872</ele>
        <time>2022-10-01T10:58:58Z</time>
      </trkpt>
      <trkpt lat="43.66142" lon="3.77446">
        <ele>106.44043</ele>
        <time>2022-10-01T10:59:08Z</time>
      </trkpt>
      <trkpt lat="43.66133" lon="3.77468">
        <ele>106.839417</ele>
        <time>2022-10-01T10:59:18Z</time>
      </trkpt>
      <trkpt lat="43.66125" lon="3.77489">
        <ele>106.85952</ele>
        <time>2022-10-01T10:59:28Z</time>
      </trkpt>
      <trkpt lat="43.66115" lon="3.77506">
        <ele>106.772972</ele>
        <time>2022-10-01T10:59:38Z</time>
      </trkpt>
      <trkpt lat="43.66093" lon="3.77529">
        <ele>106.943054</ele>
        <time>2022-10-01T11:00:08Z</time>
      </trkpt>
      <trkpt lat="43.66077" lon="3.77577">
        <ele>105.538597</ele>
        <time>2022-10-01T11:00:28Z</time>
      </trkpt>
      <trkpt lat="43.66049" lon="3.7764">
        <ele>102.617432</ele>
        <time>2022-10-01T11:00:38Z</time>
      </trkpt>
      <trkpt lat="43.66021" lon="3.77705">
        <ele>99.495331</ele>
        <time>2022-10-01T11:00:48Z</time>
      </trkpt>
      <trkpt lat="43.65992" lon="3.77775">
        <ele>96.194885</ele>
        <time>2022-10-01T11:00:58Z</time>
      </trkpt>
      <trkpt lat="43.65957" lon="3.77837">
        <ele>94.000404</ele>
        <time>2022-10-01T11:01:08Z</time>
      </trkpt>
      <trkpt lat="43.65922" lon="3.77883">
        <ele>94.089233</ele>
        <time>2022-10-01T11:01:18Z</time>
      </trkpt>
      <trkpt lat="43.6589" lon="3.77923">
        <ele>93.924034</ele>
        <time>2022-10-01T11:01:28Z</time>
      </trkpt>
      <trkpt lat="43.6586" lon="3.77971">
        <ele>93.217445</ele>
        <time>2022-10-01T11:01:38Z</time>
      </trkpt>
      <trkpt lat="43.65829" lon="3.7801">
        <ele>92.940758</ele>
        <time>2022-10-01T11:01:48Z</time>
      </trkpt>
      <trkpt lat="43.65806" lon="3.78061">
        <ele>91.594086</ele>
        <time>2022-10-01T11:01:58Z</time>
      </trkpt>
      <trkpt lat="43.65778" lon="3.7811">
        <ele>89.757591</ele>
        <time>2022-10-01T11:02:08Z</time>
      </trkpt>
      <trkpt lat="43.65747" lon="3.7815">
        <ele>89.044472</ele>
        <time>2022-10-01T11:02:18Z</time>
      </trkpt>
      <trkpt lat="43.65726" lon="3.78164">
        <ele>88.298943</ele>
        <time>2022-10-01T11:02:28Z</time>
      </trkpt>
      <trkpt lat="43.65717" lon="3.78184">
        <ele>87.960938</ele>
        <time>2022-10-01T11:02:48Z</time>
      </trkpt>
      <trkpt lat="43.65701" lon="3.78192">
        <ele>87.905815</ele>
        <time>2022-10-01T11:03:08Z</time>
      </trkpt>
      <trkpt lat="43.65701" lon="3.78177">
        <ele>87.789246</ele>
        <time>2022-10-01T11:03:18Z</time>
      </trkpt>
      <trkpt lat="43.65696" lon="3.78147">
        <ele>87.516174</ele>
        <time>2022-10-01T11:03:28Z</time>
      </trkpt>
      <trkpt lat="43.6568" lon="3.78153">
        <ele>87.020302</ele>
        <time>2022-10-01T11:03:48Z</time>
      </trkpt>
      <trkpt lat="43.65662" lon="3.78145">
        <ele>85.694908</ele>
        <time>2022-10-01T11:04:08Z</time>
      </trkpt>
      <trkpt lat="43.65647" lon="3.78151">
        <ele>84.554039</ele>
        <time>2022-10-01T11:04:18Z</time>
      </trkpt>
      <trkpt lat="43.65629" lon="3.78174">
        <ele>83.691566</ele>
        <time>2022-10-01T11:04:28Z</time>
      </trkpt>
      <trkpt lat="43.65616" lon="3.78195">
        <ele>82.494843</ele>
        <time>2022-10-01T11:04:38Z</time>
      </trkpt>
      <trkpt lat="43.65596" lon="3.78186">
        <ele>81.019524</ele>
        <time>2022-10-01T11:05:38Z</time>
      </trkpt>
      <trkpt lat="43.65592" lon="3.78174">
        <ele>80.237663</ele>
        <time>2022-10-01T11:05:58Z</time>
      </trkpt>
      <trkpt lat="43.65585" lon="3.78152">
        <ele>79.702797</ele>
        <time>2022-10-01T11:06:18Z</time>
      </trkpt>
      <trkpt lat="43.65583" lon="3.78126">
        <ele>79.121689</ele>
        <time>2022-10-01T11:06:28Z</time>
      </trkpt>
      <trkpt lat="43.65569" lon="3.78117">
        <ele>78.487396</ele>
        <time>2022-10-01T11:06:38Z</time>
      </trkpt>
      <trkpt lat="43.65555" lon="3.78111">
        <ele>77.489685</ele>
        <time>2022-10-01T11:06:48Z</time>
      </trkpt>
      <trkpt lat="43.65543" lon="3.78101">
        <ele>76.953644</ele>
        <time>2022-10-01T11:06:58Z</time>
      </trkpt>
      <trkpt lat="43.6554" lon="3.78129">
        <ele>76.837746</ele>
        <time>2022-10-01T11:07:18Z</time>
      </trkpt>
      <trkpt lat="43.65552" lon="3.78157">
        <ele>76.836899</ele>
        <time>2022-10-01T11:07:38Z</time>
      </trkpt>
      <trkpt lat="43.65566" lon="3.78196">
        <ele>77.372597</ele>
        <time>2022-10-01T11:07:48Z</time>
      </trkpt>
      <trkpt lat="43.65567" lon="3.7824">
        <ele>77.907753</ele>
        <time>2022-10-01T11:07:58Z</time>
      </trkpt>
      <trkpt lat="43.65562" lon="3.78283">
        <ele>77.24984</ele>
        <time>2022-10-01T11:08:08Z</time>
      </trkpt>
      <trkpt lat="43.65547" lon="3.78315">
        <ele>75.741455</ele>
        <time>2022-10-01T11:08:18Z</time>
      </trkpt>
      <trkpt lat="43.65532" lon="3.78341">
        <ele>74.994873</ele>
        <time>2022-10-01T11:08:28Z</time>
      </trkpt>
      <trkpt lat="43.65511" lon="3.78356">
        <ele>74.516914</ele>
        <time>2022-10-01T11:08:38Z</time>
      </trkpt>
      <trkpt lat="43.65484" lon="3.78396">
        <ele>74.120514</ele>
        <time>2022-10-01T11:08:48Z</time>
      </trkpt>
      <trkpt lat="43.6545" lon="3.78458">
        <ele>74.540199</ele>
        <time>2022-10-01T11:08:58Z</time>
      </trkpt>
      <trkpt lat="43.65428" lon="3.78533">
        <ele>74.95475</ele>
        <time>2022-10-01T11:09:08Z</time>
      </trkpt>
      <trkpt lat="43.65429" lon="3.7861">
        <ele>73.11924</ele>
        <time>2022-10-01T11:09:18Z</time>
      </trkpt>
      <trkpt lat="43.6538" lon="3.78641">
        <ele>70.695595</ele>
        <time>2022-10-01T11:09:28Z</time>
      </trkpt>
      <trkpt lat="43.65347" lon="3.78662">
        <ele>70.696182</ele>
        <time>2022-10-01T11:09:38Z</time>
      </trkpt>
      <trkpt lat="43.6532" lon="3.78687">
        <ele>70.941811</ele>
        <time>2022-10-01T11:09:48Z</time>
      </trkpt>
      <trkpt lat="43.65287" lon="3.78708">
        <ele>71.549072</ele>
        <time>2022-10-01T11:09:58Z</time>
      </trkpt>
      <trkpt lat="43.65252" lon="3.78723">
        <ele>72.433739</ele>
        <time>2022-10-01T11:10:08Z</time>
      </trkpt>
      <trkpt lat="43.65221" lon="3.78749">
        <ele>73.284157</ele>
        <time>2022-10-01T11:10:18Z</time>
      </trkpt>
      <trkpt lat="43.65199" lon="3.78781">
        <ele>73.343979</ele>
        <time>2022-10-01T11:10:28Z</time>
      </trkpt>
      <trkpt lat="43.65166" lon="3.78804">
        <ele>73.884056</ele>
        <time>2022-10-01T11:10:38Z</time>
      </trkpt>
      <trkpt lat="43.65149" lon="3.78836">
        <ele>74.606102</ele>
        <time>2022-10-01T11:10:48Z</time>
      </trkpt>
      <trkpt lat="43.65127" lon="3.78876">
        <ele>72.780907</ele>
        <time>2022-10-01T11:10:58Z</time>
      </trkpt>
      <trkpt lat="43.65093" lon="3.7891">
        <ele>74.838074</ele>
        <time>2022-10-01T11:11:08Z</time>
      </trkpt>
      <trkpt lat="43.65074" lon="3.78945">
        <ele>73.269615</ele>
        <time>2022-10-01T11:11:18Z</time>
      </trkpt>
      <trkpt lat="43.65045" lon="3.78952">
        <ele>74.559937</ele>
        <time>2022-10-01T11:11:28Z</time>
      </trkpt>
      <trkpt lat="43.6502" lon="3.78972">
        <ele>75.580376</ele>
        <time>2022-10-01T11:11:38Z</time>
      </trkpt>
      <trkpt lat="43.64991" lon="3.78988">
        <ele>75.989128</ele>
        <time>2022-10-01T11:11:48Z</time>
      </trkpt>
      <trkpt lat="43.64954" lon="3.79002">
        <ele>77.939308</ele>
        <time>2022-10-01T11:11:58Z</time>
      </trkpt>
      <trkpt lat="43.64926" lon="3.79022">
        <ele>79.04113</ele>
        <time>2022-10-01T11:12:08Z</time>
      </trkpt>
      <trkpt lat="43.64895" lon="3.79045">
        <ele>80.563126</ele>
        <time>2022-10-01T11:12:18Z</time>
      </trkpt>
      <trkpt lat="43.64861" lon="3.79068">
        <ele>82.890678</ele>
        <time>2022-10-01T11:12:28Z</time>
      </trkpt>
      <trkpt lat="43.64825" lon="3.79108">
        <ele>86.247322</ele>
        <time>2022-10-01T11:12:38Z</time>
      </trkpt>
      <trkpt lat="43.64797" lon="3.79128">
        <ele>88.322929</ele>
        <time>2022-10-01T11:12:48Z</time>
      </trkpt>
      <trkpt lat="43.64766" lon="3.7915">
        <ele>90.557411</ele>
        <time>2022-10-01T11:12:58Z</time>
      </trkpt>
      <trkpt lat="43.64737" lon="3.79174">
        <ele>91.722107</ele>
        <time>2022-10-01T11:13:08Z</time>
      </trkpt>
      <trkpt lat="43.64712" lon="3.79192">
        <ele>92.792259</ele>
        <time>2022-10-01T11:13:18Z</time>
      </trkpt>
      <trkpt lat="43.64705" lon="3.79216">
        <ele>93.546265</ele>
        <time>2022-10-01T11:13:28Z</time>
      </trkpt>
      <trkpt lat="43.64703" lon="3.79248">
        <ele>89.165016</ele>
        <time>2022-10-01T11:13:38Z</time>
      </trkpt>
      <trkpt lat="43.64688" lon="3.79274">
        <ele>84.44944</ele>
        <time>2022-10-01T11:13:48Z</time>
      </trkpt>
      <trkpt lat="43.64668" lon="3.79312">
        <ele>85.503761</ele>
        <time>2022-10-01T11:13:58Z</time>
      </trkpt>
      <trkpt lat="43.6466" lon="3.79352">
        <ele>84.107613</ele>
        <time>2022-10-01T11:14:08Z</time>
      </trkpt>
      <trkpt lat="43.64631" lon="3.79397">
        <ele>81.799461</ele>
        <time>2022-10-01T11:14:18Z</time>
      </trkpt>
      <trkpt lat="43.64608" lon="3.79433">
        <ele>82.360657</ele>
        <time>2022-10-01T11:14:28Z</time>
      </trkpt>
      <trkpt lat="43.64606" lon="3.79473">
        <ele>78.045753</ele>
        <time>2022-10-01T11:14:38Z</time>
      </trkpt>
      <trkpt lat="43.64589" lon="3.79514">
        <ele>71.328209</ele>
        <time>2022-10-01T11:14:48Z</time>
      </trkpt>
      <trkpt lat="43.64577" lon="3.79561">
        <ele>64.709564</ele>
        <time>2022-10-01T11:14:58Z</time>
      </trkpt>
      <trkpt lat="43.64563" lon="3.79607">
        <ele>58.62376</ele>
        <time>2022-10-01T11:15:08Z</time>
      </trkpt>
      <trkpt lat="43.64551" lon="3.7965">
        <ele>56.973358</ele>
        <time>2022-10-01T11:15:18Z</time>
      </trkpt>
      <trkpt lat="43.64532" lon="3.79684">
        <ele>56.269367</ele>
        <time>2022-10-01T11:15:28Z</time>
      </trkpt>
      <trkpt lat="43.64516" lon="3.79726">
        <ele>56.766308</ele>
        <time>2022-10-01T11:15:38Z</time>
      </trkpt>
      <trkpt lat="43.64488" lon="3.79752">
        <ele>57.536499</ele>
        <time>2022-10-01T11:15:48Z</time>
      </trkpt>
      <trkpt lat="43.64465" lon="3.7977">
        <ele>57.892975</ele>
        <time>2022-10-01T11:15:58Z</time>
      </trkpt>
      <trkpt lat="43.64426" lon="3.79774">
        <ele>58.123592</ele>
        <time>2022-10-01T11:16:08Z</time>
      </trkpt>
      <trkpt lat="43.64389" lon="3.79774">
        <ele>58.78738</ele>
        <time>2022-10-01T11:16:18Z</time>
      </trkpt>
      <trkpt lat="43.64347" lon="3.79791">
        <ele>59.573986</ele>
        <time>2022-10-01T11:16:28Z</time>
      </trkpt>
      <trkpt lat="43.64313" lon="3.79811">
        <ele>60.354656</ele>
        <time>2022-10-01T11:16:38Z</time>
      </trkpt>
      <trkpt lat="43.64283" lon="3.79822">
        <ele>62.672821</ele>
        <time>2022-10-01T11:16:48Z</time>
      </trkpt>
      <trkpt lat="43.64313" lon="3.79811">
        <ele>62.849884</ele>
        <time>2022-10-01T11:16:58Z</time>
      </trkpt>
      <trkpt lat="43.6435" lon="3.79791">
        <ele>60.434246</ele>
        <time>2022-10-01T11:17:08Z</time>
      </trkpt>
      <trkpt lat="43.64387" lon="3.79808">
        <ele>59.477947</ele>
        <time>2022-10-01T11:17:18Z</time>
      </trkpt>
      <trkpt lat="43.64418" lon="3.7984">
        <ele>58.473663</ele>
        <time>2022-10-01T11:17:28Z</time>
      </trkpt>
      <trkpt lat="43.64447" lon="3.79871">
        <ele>58.5784</ele>
        <time>2022-10-01T11:17:38Z</time>
      </trkpt>
      <trkpt lat="43.64475" lon="3.79903">
        <ele>58.558838</ele>
        <time>2022-10-01T11:17:48Z</time>
      </trkpt>
      <trkpt lat="43.64504" lon="3.79935">
        <ele>58.528645</ele>
        <time>2022-10-01T11:17:58Z</time>
      </trkpt>
      <trkpt lat="43.64532" lon="3.79965">
        <ele>58.872478</ele>
        <time>2022-10-01T11:18:08Z</time>
      </trkpt>
      <trkpt lat="43.64558" lon="3.79994">
        <ele>59.827148</ele>
        <time>2022-10-01T11:18:18Z</time>
      </trkpt>
      <trkpt lat="43.64555" lon="3.80032">
        <ele>60.745266</ele>
        <time>2022-10-01T11:18:28Z</time>
      </trkpt>
      <trkpt lat="43.64539" lon="3.8007">
        <ele>60.588573</ele>
        <time>2022-10-01T11:18:38Z</time>
      </trkpt>
      <trkpt lat="43.64523" lon="3.80118">
        <ele>60.585995</ele>
        <time>2022-10-01T11:18:48Z</time>
      </trkpt>
      <trkpt lat="43.64551" lon="3.80167">
        <ele>61.308697</ele>
        <time>2022-10-01T11:18:58Z</time>
      </trkpt>
      <trkpt lat="43.64576" lon="3.80208">
        <ele>61.903534</ele>
        <time>2022-10-01T11:19:08Z</time>
      </trkpt>
      <trkpt lat="43.64608" lon="3.80239">
        <ele>61.631626</ele>
        <time>2022-10-01T11:19:18Z</time>
      </trkpt>
      <trkpt lat="43.64628" lon="3.80247">
        <ele>61.60368</ele>
        <time>2022-10-01T11:19:28Z</time>
      </trkpt>
      <trkpt lat="43.64644" lon="3.80273">
        <ele>61.704834</ele>
        <time>2022-10-01T11:19:38Z</time>
      </trkpt>
      <trkpt lat="43.64673" lon="3.8028">
        <ele>61.850185</ele>
        <time>2022-10-01T11:19:48Z</time>
      </trkpt>
      <trkpt lat="43.6467" lon="3.80337">
        <ele>61.719044</ele>
        <time>2022-10-01T11:19:58Z</time>
      </trkpt>
      <trkpt lat="43.64666" lon="3.80398">
        <ele>60.658447</ele>
        <time>2022-10-01T11:20:08Z</time>
      </trkpt>
      <trkpt lat="43.64668" lon="3.8046">
        <ele>60.586407</ele>
        <time>2022-10-01T11:20:18Z</time>
      </trkpt>
      <trkpt lat="43.64675" lon="3.80524">
        <ele>62.736576</ele>
        <time>2022-10-01T11:20:28Z</time>
      </trkpt>
      <trkpt lat="43.6468" lon="3.80589">
        <ele>65.260429</ele>
        <time>2022-10-01T11:20:38Z</time>
      </trkpt>
      <trkpt lat="43.64682" lon="3.80647">
        <ele>67.207794</ele>
        <time>2022-10-01T11:20:48Z</time>
      </trkpt>
      <trkpt lat="43.64675" lon="3.80708">
        <ele>68.846031</ele>
        <time>2022-10-01T11:20:58Z</time>
      </trkpt>
      <trkpt lat="43.64662" lon="3.80769">
        <ele>68.999184</ele>
        <time>2022-10-01T11:21:08Z</time>
      </trkpt>
      <trkpt lat="43.64643" lon="3.80825">
        <ele>68.366943</ele>
        <time>2022-10-01T11:21:18Z</time>
      </trkpt>
      <trkpt lat="43.64627" lon="3.80884">
        <ele>67.432701</ele>
        <time>2022-10-01T11:21:28Z</time>
      </trkpt>
      <trkpt lat="43.64615" lon="3.80933">
        <ele>66.704185</ele>
        <time>2022-10-01T11:21:38Z</time>
      </trkpt>
      <trkpt lat="43.64603" lon="3.80986">
        <ele>66.17733</ele>
        <time>2022-10-01T11:21:48Z</time>
      </trkpt>
      <trkpt lat="43.64586" lon="3.81035">
        <ele>66.819168</ele>
        <time>2022-10-01T11:21:58Z</time>
      </trkpt>
      <trkpt lat="43.64592" lon="3.81084">
        <ele>67.590576</ele>
        <time>2022-10-01T11:22:08Z</time>
      </trkpt>
      <trkpt lat="43.64589" lon="3.81137">
        <ele>68.376549</ele>
        <time>2022-10-01T11:22:18Z</time>
      </trkpt>
      <trkpt lat="43.64577" lon="3.81184">
        <ele>69.192146</ele>
        <time>2022-10-01T11:22:28Z</time>
      </trkpt>
      <trkpt lat="43.64563" lon="3.81228">
        <ele>70.563599</ele>
        <time>2022-10-01T11:22:38Z</time>
      </trkpt>
      <trkpt lat="43.6455" lon="3.81267">
        <ele>72.190941</ele>
        <time>2022-10-01T11:22:48Z</time>
      </trkpt>
      <trkpt lat="43.64536" lon="3.81302">
        <ele>74.206856</ele>
        <time>2022-10-01T11:22:58Z</time>
      </trkpt>
      <trkpt lat="43.64528" lon="3.81336">
        <ele>76.455742</ele>
        <time>2022-10-01T11:23:08Z</time>
      </trkpt>
      <trkpt lat="43.64524" lon="3.81366">
        <ele>78.19619</ele>
        <time>2022-10-01T11:23:18Z</time>
      </trkpt>
      <trkpt lat="43.64519" lon="3.81394">
        <ele>80.312691</ele>
        <time>2022-10-01T11:23:28Z</time>
      </trkpt>
      <trkpt lat="43.64515" lon="3.81423">
        <ele>82.740852</ele>
        <time>2022-10-01T11:23:38Z</time>
      </trkpt>
      <trkpt lat="43.64507" lon="3.8145">
        <ele>85.387817</ele>
        <time>2022-10-01T11:23:48Z</time>
      </trkpt>
      <trkpt lat="43.64498" lon="3.81471">
        <ele>88.163948</ele>
        <time>2022-10-01T11:23:58Z</time>
      </trkpt>
      <trkpt lat="43.64489" lon="3.81489">
        <ele>91.17086</ele>
        <time>2022-10-01T11:24:08Z</time>
      </trkpt>
      <trkpt lat="43.6448" lon="3.81506">
        <ele>93.79303</ele>
        <time>2022-10-01T11:24:18Z</time>
      </trkpt>
      <trkpt lat="43.64469" lon="3.81523">
        <ele>96.570885</ele>
        <time>2022-10-01T11:24:28Z</time>
      </trkpt>
      <trkpt lat="43.6446" lon="3.81536">
        <ele>99.625</ele>
        <time>2022-10-01T11:24:38Z</time>
      </trkpt>
      <trkpt lat="43.64459" lon="3.81551">
        <ele>101.271812</ele>
        <time>2022-10-01T11:24:48Z</time>
      </trkpt>
      <trkpt lat="43.6446" lon="3.81571">
        <ele>102.801598</ele>
        <time>2022-10-01T11:24:58Z</time>
      </trkpt>
      <trkpt lat="43.64465" lon="3.81589">
        <ele>103.447121</ele>
        <time>2022-10-01T11:25:08Z</time>
      </trkpt>
      <trkpt lat="43.64471" lon="3.81605">
        <ele>103.242188</ele>
        <time>2022-10-01T11:25:18Z</time>
      </trkpt>
      <trkpt lat="43.64476" lon="3.81624">
        <ele>103.267487</ele>
        <time>2022-10-01T11:25:28Z</time>
      </trkpt>
      <trkpt lat="43.64481" lon="3.81641">
        <ele>103.438904</ele>
        <time>2022-10-01T11:25:38Z</time>
      </trkpt>
      <trkpt lat="43.64487" lon="3.8166">
        <ele>103.592613</ele>
        <time>2022-10-01T11:25:48Z</time>
      </trkpt>
      <trkpt lat="43.64491" lon="3.81679">
        <ele>103.705956</ele>
        <time>2022-10-01T11:25:58Z</time>
      </trkpt>
      <trkpt lat="43.64494" lon="3.81698">
        <ele>104.298431</ele>
        <time>2022-10-01T11:26:08Z</time>
      </trkpt>
      <trkpt lat="43.645" lon="3.81718">
        <ele>104.746773</ele>
        <time>2022-10-01T11:26:18Z</time>
      </trkpt>
      <trkpt lat="43.64502" lon="3.81736">
        <ele>105.058258</ele>
        <time>2022-10-01T11:26:28Z</time>
      </trkpt>
      <trkpt lat="43.64499" lon="3.81755">
        <ele>105.98114</ele>
        <time>2022-10-01T11:26:38Z</time>
      </trkpt>
      <trkpt lat="43.64496" lon="3.81772">
        <ele>107.077484</ele>
        <time>2022-10-01T11:26:48Z</time>
      </trkpt>
      <trkpt lat="43.6449" lon="3.81791">
        <ele>108.130119</ele>
        <time>2022-10-01T11:26:58Z</time>
      </trkpt>
      <trkpt lat="43.64489" lon="3.81812">
        <ele>108.517967</ele>
        <time>2022-10-01T11:27:08Z</time>
      </trkpt>
      <trkpt lat="43.64485" lon="3.81834">
        <ele>108.723145</ele>
        <time>2022-10-01T11:27:18Z</time>
      </trkpt>
      <trkpt lat="43.64483" lon="3.81852">
        <ele>108.961372</ele>
        <time>2022-10-01T11:27:28Z</time>
      </trkpt>
      <trkpt lat="43.64479" lon="3.81874">
        <ele>108.932373</ele>
        <time>2022-10-01T11:27:38Z</time>
      </trkpt>
      <trkpt lat="43.64476" lon="3.81898">
        <ele>108.824379</ele>
        <time>2022-10-01T11:27:48Z</time>
      </trkpt>
      <trkpt lat="43.64467" lon="3.81925">
        <ele>108.831413</ele>
        <time>2022-10-01T11:27:58Z</time>
      </trkpt>
      <trkpt lat="43.64446" lon="3.81965">
        <ele>109.405663</ele>
        <time>2022-10-01T11:28:08Z</time>
      </trkpt>
      <trkpt lat="43.64426" lon="3.82">
        <ele>109.774078</ele>
        <time>2022-10-01T11:28:18Z</time>
      </trkpt>
      <trkpt lat="43.64401" lon="3.8204">
        <ele>109.753418</ele>
        <time>2022-10-01T11:28:28Z</time>
      </trkpt>
      <trkpt lat="43.64378" lon="3.8208">
        <ele>109.736702</ele>
        <time>2022-10-01T11:28:38Z</time>
      </trkpt>
      <trkpt lat="43.64359" lon="3.82126">
        <ele>109.6623</ele>
        <time>2022-10-01T11:28:48Z</time>
      </trkpt>
      <trkpt lat="43.64359" lon="3.82169">
        <ele>108.842377</ele>
        <time>2022-10-01T11:28:58Z</time>
      </trkpt>
      <trkpt lat="43.64397" lon="3.82198">
        <ele>107.543213</ele>
        <time>2022-10-01T11:29:08Z</time>
      </trkpt>
      <trkpt lat="43.64408" lon="3.82245">
        <ele>106.195152</ele>
        <time>2022-10-01T11:29:18Z</time>
      </trkpt>
      <trkpt lat="43.6437" lon="3.82262">
        <ele>105.962914</ele>
        <time>2022-10-01T11:29:28Z</time>
      </trkpt>
      <trkpt lat="43.64347" lon="3.82282">
        <ele>106.129112</ele>
        <time>2022-10-01T11:29:38Z</time>
      </trkpt>
      <trkpt lat="43.6433" lon="3.82327">
        <ele>105.564079</ele>
        <time>2022-10-01T11:29:48Z</time>
      </trkpt>
      <trkpt lat="43.64306" lon="3.82359">
        <ele>104.322075</ele>
        <time>2022-10-01T11:29:58Z</time>
      </trkpt>
      <trkpt lat="43.64299" lon="3.82387">
        <ele>103.76046</ele>
        <time>2022-10-01T11:30:08Z</time>
      </trkpt>
      <trkpt lat="43.64277" lon="3.82427">
        <ele>102.690918</ele>
        <time>2022-10-01T11:30:18Z</time>
      </trkpt>
      <trkpt lat="43.64258" lon="3.82475">
        <ele>101.560219</ele>
        <time>2022-10-01T11:30:28Z</time>
      </trkpt>
      <trkpt lat="43.64234" lon="3.82525">
        <ele>99.436584</ele>
        <time>2022-10-01T11:30:38Z</time>
      </trkpt>
      <trkpt lat="43.64207" lon="3.82576">
        <ele>97.577606</ele>
        <time>2022-10-01T11:30:48Z</time>
      </trkpt>
      <trkpt lat="43.64171" lon="3.82625">
        <ele>95.913658</ele>
        <time>2022-10-01T11:30:58Z</time>
      </trkpt>
      <trkpt lat="43.64134" lon="3.8267">
        <ele>93.348633</ele>
        <time>2022-10-01T11:31:08Z</time>
      </trkpt>
      <trkpt lat="43.64095" lon="3.82714">
        <ele>90.703583</ele>
        <time>2022-10-01T11:31:18Z</time>
      </trkpt>
      <trkpt lat="43.64054" lon="3.82747">
        <ele>88.025391</ele>
        <time>2022-10-01T11:31:28Z</time>
      </trkpt>
      <trkpt lat="43.64018" lon="3.82781">
        <ele>85.435333</ele>
        <time>2022-10-01T11:31:38Z</time>
      </trkpt>
      <trkpt lat="43.63971" lon="3.828">
        <ele>83.231323</ele>
        <time>2022-10-01T11:31:48Z</time>
      </trkpt>
      <trkpt lat="43.63936" lon="3.82821">
        <ele>81.582657</ele>
        <time>2022-10-01T11:31:58Z</time>
      </trkpt>
      <trkpt lat="43.63915" lon="3.82816">
        <ele>81.03376</ele>
        <time>2022-10-01T11:32:08Z</time>
      </trkpt>
      <trkpt lat="43.63893" lon="3.82781">
        <ele>82.233032</ele>
        <time>2022-10-01T11:32:28Z</time>
      </trkpt>
      <trkpt lat="43.63878" lon="3.82743">
        <ele>85.056641</ele>
        <time>2022-10-01T11:32:38Z</time>
      </trkpt>
      <trkpt lat="43.63862" lon="3.82718">
        <ele>87.515137</ele>
        <time>2022-10-01T11:32:48Z</time>
      </trkpt>
      <trkpt lat="43.63821" lon="3.82728">
        <ele>88.325081</ele>
        <time>2022-10-01T11:32:58Z</time>
      </trkpt>
      <trkpt lat="43.63774" lon="3.82745">
        <ele>86.938072</ele>
        <time>2022-10-01T11:33:08Z</time>
      </trkpt>
      <trkpt lat="43.63728" lon="3.82754">
        <ele>86.489502</ele>
        <time>2022-10-01T11:33:18Z</time>
      </trkpt>
      <trkpt lat="43.63685" lon="3.82764">
        <ele>87.180824</ele>
        <time>2022-10-01T11:33:28Z</time>
      </trkpt>
      <trkpt lat="43.63649" lon="3.82768">
        <ele>87.698326</ele>
        <time>2022-10-01T11:33:38Z</time>
      </trkpt>
      <trkpt lat="43.63632" lon="3.82743">
        <ele>89.223869</ele>
        <time>2022-10-01T11:33:48Z</time>
      </trkpt>
      <trkpt lat="43.63634" lon="3.82709">
        <ele>91.147522</ele>
        <time>2022-10-01T11:33:58Z</time>
      </trkpt>
      <trkpt lat="43.63629" lon="3.82679">
        <ele>91.617149</ele>
        <time>2022-10-01T11:34:08Z</time>
      </trkpt>
      <trkpt lat="43.63618" lon="3.82653">
        <ele>91.974281</ele>
        <time>2022-10-01T11:34:18Z</time>
      </trkpt>
      <trkpt lat="43.63608" lon="3.82629">
        <ele>92.046013</ele>
        <time>2022-10-01T11:34:28Z</time>
      </trkpt>
      <trkpt lat="43.63592" lon="3.82613">
        <ele>91.77877</ele>
        <time>2022-10-01T11:34:38Z</time>
      </trkpt>
      <trkpt lat="43.6359" lon="3.8259">
        <ele>91.295433</ele>
        <time>2022-10-01T11:34:48Z</time>
      </trkpt>
      <trkpt lat="43.63587" lon="3.82564">
        <ele>90.932365</ele>
        <time>2022-10-01T11:34:58Z</time>
      </trkpt>
      <trkpt lat="43.63576" lon="3.82524">
        <ele>90.245033</ele>
        <time>2022-10-01T11:35:08Z</time>
      </trkpt>
      <trkpt lat="43.63552" lon="3.82533">
        <ele>88.948334</ele>
        <time>2022-10-01T11:35:18Z</time>
      </trkpt>
      <trkpt lat="43.6352" lon="3.82539">
        <ele>87.477669</ele>
        <time>2022-10-01T11:35:28Z</time>
      </trkpt>
      <trkpt lat="43.63475" lon="3.82545">
        <ele>84.826492</ele>
        <time>2022-10-01T11:35:38Z</time>
      </trkpt>
      <trkpt lat="43.63422" lon="3.82552">
        <ele>81.568329</ele>
        <time>2022-10-01T11:35:48Z</time>
      </trkpt>
      <trkpt lat="43.63363" lon="3.82565">
        <ele>77.916588</ele>
        <time>2022-10-01T11:35:58Z</time>
      </trkpt>
      <trkpt lat="43.6332" lon="3.82592">
        <ele>74.890938</ele>
        <time>2022-10-01T11:36:08Z</time>
      </trkpt>
      <trkpt lat="43.63289" lon="3.82617">
        <ele>73.635262</ele>
        <time>2022-10-01T11:36:18Z</time>
      </trkpt>
      <trkpt lat="43.63265" lon="3.82644">
        <ele>73.135414</ele>
        <time>2022-10-01T11:36:28Z</time>
      </trkpt>
      <trkpt lat="43.6324" lon="3.82674">
        <ele>73.317055</ele>
        <time>2022-10-01T11:36:38Z</time>
      </trkpt>
      <trkpt lat="43.63221" lon="3.8271">
        <ele>73.675133</ele>
        <time>2022-10-01T11:36:48Z</time>
      </trkpt>
      <trkpt lat="43.63201" lon="3.8274">
        <ele>74.003838</ele>
        <time>2022-10-01T11:36:58Z</time>
      </trkpt>
      <trkpt lat="43.63183" lon="3.82777">
        <ele>75.060059</ele>
        <time>2022-10-01T11:37:08Z</time>
      </trkpt>
      <trkpt lat="43.63181" lon="3.82819">
        <ele>76.376625</ele>
        <time>2022-10-01T11:37:18Z</time>
      </trkpt>
      <trkpt lat="43.63192" lon="3.82876">
        <ele>79.705971</ele>
        <time>2022-10-01T11:37:28Z</time>
      </trkpt>
      <trkpt lat="43.63209" lon="3.82942">
        <ele>82.495735</ele>
        <time>2022-10-01T11:37:38Z</time>
      </trkpt>
      <trkpt lat="43.63188" lon="3.82964">
        <ele>83.55658</ele>
        <time>2022-10-01T11:37:48Z</time>
      </trkpt>
      <trkpt lat="43.63162" lon="3.82973">
        <ele>83.019241</ele>
        <time>2022-10-01T11:37:58Z</time>
      </trkpt>
      <trkpt lat="43.63127" lon="3.82972">
        <ele>82.254669</ele>
        <time>2022-10-01T11:38:08Z</time>
      </trkpt>
      <trkpt lat="43.63115" lon="3.82974">
        <ele>81.274727</ele>
        <time>2022-10-01T11:38:18Z</time>
      </trkpt>
      <trkpt lat="43.63096" lon="3.82972">
        <ele>80.888664</ele>
        <time>2022-10-01T11:38:28Z</time>
      </trkpt>
      <trkpt lat="43.63074" lon="3.82988">
        <ele>80.076149</ele>
        <time>2022-10-01T11:38:38Z</time>
      </trkpt>
      <trkpt lat="43.63056" lon="3.83004">
        <ele>79.987633</ele>
        <time>2022-10-01T11:38:48Z</time>
      </trkpt>
      <trkpt lat="43.6304" lon="3.83029">
        <ele>80.089211</ele>
        <time>2022-10-01T11:38:58Z</time>
      </trkpt>
      <trkpt lat="43.63029" lon="3.83066">
        <ele>80.877708</ele>
        <time>2022-10-01T11:39:08Z</time>
      </trkpt>
      <trkpt lat="43.6302" lon="3.83104">
        <ele>82.268349</ele>
        <time>2022-10-01T11:39:18Z</time>
      </trkpt>
      <trkpt lat="43.62996" lon="3.83124">
        <ele>83.057121</ele>
        <time>2022-10-01T11:39:28Z</time>
      </trkpt>
      <trkpt lat="43.62967" lon="3.83106">
        <ele>83.112465</ele>
        <time>2022-10-01T11:39:38Z</time>
      </trkpt>
      <trkpt lat="43.62928" lon="3.83094">
        <ele>82.642548</ele>
        <time>2022-10-01T11:39:48Z</time>
      </trkpt>
      <trkpt lat="43.6289" lon="3.83087">
        <ele>82.395317</ele>
        <time>2022-10-01T11:39:58Z</time>
      </trkpt>
      <trkpt lat="43.62856" lon="3.83083">
        <ele>82.176819</ele>
        <time>2022-10-01T11:40:08Z</time>
      </trkpt>
      <trkpt lat="43.62825" lon="3.83088">
        <ele>82.343117</ele>
        <time>2022-10-01T11:40:18Z</time>
      </trkpt>
      <trkpt lat="43.62797" lon="3.83095">
        <ele>82.63372</ele>
        <time>2022-10-01T11:40:28Z</time>
      </trkpt>
      <trkpt lat="43.62773" lon="3.83099">
        <ele>83.134735</ele>
        <time>2022-10-01T11:40:38Z</time>
      </trkpt>
      <trkpt lat="43.62751" lon="3.83106">
        <ele>83.48056</ele>
        <time>2022-10-01T11:40:48Z</time>
      </trkpt>
      <trkpt lat="43.62728" lon="3.83117">
        <ele>84.22596</ele>
        <time>2022-10-01T11:40:58Z</time>
      </trkpt>
      <trkpt lat="43.627" lon="3.83134">
        <ele>85.149818</ele>
        <time>2022-10-01T11:41:08Z</time>
      </trkpt>
      <trkpt lat="43.62668" lon="3.83161">
        <ele>86.653564</ele>
        <time>2022-10-01T11:41:18Z</time>
      </trkpt>
      <trkpt lat="43.62628" lon="3.83193">
        <ele>86.573402</ele>
        <time>2022-10-01T11:41:28Z</time>
      </trkpt>
      <trkpt lat="43.62584" lon="3.83225">
        <ele>85.107872</ele>
        <time>2022-10-01T11:41:38Z</time>
      </trkpt>
      <trkpt lat="43.62559" lon="3.8326">
        <ele>83.098473</ele>
        <time>2022-10-01T11:41:48Z</time>
      </trkpt>
      <trkpt lat="43.62549" lon="3.83296">
        <ele>81.241371</ele>
        <time>2022-10-01T11:41:58Z</time>
      </trkpt>
      <trkpt lat="43.62535" lon="3.83349">
        <ele>80.126465</ele>
        <time>2022-10-01T11:42:08Z</time>
      </trkpt>
      <trkpt lat="43.62518" lon="3.83402">
        <ele>78.399742</ele>
        <time>2022-10-01T11:42:18Z</time>
      </trkpt>
      <trkpt lat="43.62496" lon="3.83423">
        <ele>76.735634</ele>
        <time>2022-10-01T11:43:18Z</time>
      </trkpt>
      <trkpt lat="43.62464" lon="3.8342">
        <ele>75.879387</ele>
        <time>2022-10-01T11:43:38Z</time>
      </trkpt>
      <trkpt lat="43.62434" lon="3.83431">
        <ele>74.832664</ele>
        <time>2022-10-01T11:43:48Z</time>
      </trkpt>
      <trkpt lat="43.624" lon="3.83451">
        <ele>75.079918</ele>
        <time>2022-10-01T11:43:58Z</time>
      </trkpt>
      <trkpt lat="43.62358" lon="3.83437">
        <ele>74.878479</ele>
        <time>2022-10-01T11:44:08Z</time>
      </trkpt>
      <trkpt lat="43.62316" lon="3.83453">
        <ele>75.558769</ele>
        <time>2022-10-01T11:44:18Z</time>
      </trkpt>
      <trkpt lat="43.62288" lon="3.83499">
        <ele>78.00737</ele>
        <time>2022-10-01T11:44:28Z</time>
      </trkpt>
      <trkpt lat="43.62265" lon="3.83522">
        <ele>80.263184</ele>
        <time>2022-10-01T11:44:38Z</time>
      </trkpt>
    </trkseg>
  </trk>
</gpx>